<?xml version="1.0" encoding="UTF-8" standalone="no" ?>
<gpx xmlns="http://www.topografix.com/GPX/1/1" xmlns:xsi="http://www.w3.org/2001/XMLSchema-instance" xsi:schemaLocation="http://www.topografix.com/GPX/1/1 http://www.topografix.com/GPX/1/1/gpx.xsd" version="1.1" creator="VisuGPX - https://www.visugpx.com">
  <metadata>
    <name>Vacqueyras ND d'Aubune 060417</name>
    <desc><![CDATA[a modifier avec Beaumes de Venise]]></desc>
  </metadata>
  <trk>
    <name><![CDATA[Vacqueyras ND d'Aubune 060417]]></name>
    <trkseg>
      <trkpt lat="44.1377" lon="4.99962">
        <ele>144.953125</ele>
        <time>2017-04-06T07:37:30Z</time>
      </trkpt>
      <trkpt lat="44.13777" lon="4.99964">
        <ele>145.7734375</ele>
        <time>2017-04-06T07:39:13Z</time>
      </trkpt>
      <trkpt lat="44.13775" lon="4.99978">
        <ele>146.5390625</ele>
        <time>2017-04-06T07:39:56Z</time>
      </trkpt>
      <trkpt lat="44.13775" lon="4.99995">
        <ele>147.92578125</ele>
        <time>2017-04-06T07:40:07Z</time>
      </trkpt>
      <trkpt lat="44.1377" lon="5.00011">
        <ele>149.06640625</ele>
        <time>2017-04-06T07:40:18Z</time>
      </trkpt>
      <trkpt lat="44.13768" lon="5.00026">
        <ele>150.1640625</ele>
        <time>2017-04-06T07:40:31Z</time>
      </trkpt>
      <trkpt lat="44.13767" lon="5.00043">
        <ele>151.578125</ele>
        <time>2017-04-06T07:40:45Z</time>
      </trkpt>
      <trkpt lat="44.13767" lon="5.00055">
        <ele>152.65234375</ele>
        <time>2017-04-06T07:40:58Z</time>
      </trkpt>
      <trkpt lat="44.13766" lon="5.00066">
        <ele>153.6796875</ele>
        <time>2017-04-06T07:41:10Z</time>
      </trkpt>
      <trkpt lat="44.13762" lon="5.00082">
        <ele>154.76953125</ele>
        <time>2017-04-06T07:41:21Z</time>
      </trkpt>
      <trkpt lat="44.13759" lon="5.00097">
        <ele>155.91015625</ele>
        <time>2017-04-06T07:41:30Z</time>
      </trkpt>
      <trkpt lat="44.13757" lon="5.00113">
        <ele>157.2578125</ele>
        <time>2017-04-06T07:41:41Z</time>
      </trkpt>
      <trkpt lat="44.13754" lon="5.00127">
        <ele>158.02734375</ele>
        <time>2017-04-06T07:41:51Z</time>
      </trkpt>
      <trkpt lat="44.13753" lon="5.00141">
        <ele>158.92578125</ele>
        <time>2017-04-06T07:42:01Z</time>
      </trkpt>
      <trkpt lat="44.13751" lon="5.00153">
        <ele>160.08984375</ele>
        <time>2017-04-06T07:42:11Z</time>
      </trkpt>
      <trkpt lat="44.13748" lon="5.0017">
        <ele>161.4296875</ele>
        <time>2017-04-06T07:42:21Z</time>
      </trkpt>
      <trkpt lat="44.13745" lon="5.00187">
        <ele>162.2578125</ele>
        <time>2017-04-06T07:42:32Z</time>
      </trkpt>
      <trkpt lat="44.13741" lon="5.00203">
        <ele>163.1875</ele>
        <time>2017-04-06T07:42:44Z</time>
      </trkpt>
      <trkpt lat="44.13737" lon="5.00219">
        <ele>164.06640625</ele>
        <time>2017-04-06T07:42:54Z</time>
      </trkpt>
      <trkpt lat="44.13736" lon="5.00232">
        <ele>164.84375</ele>
        <time>2017-04-06T07:43:03Z</time>
      </trkpt>
      <trkpt lat="44.13734" lon="5.00247">
        <ele>165.66015625</ele>
        <time>2017-04-06T07:43:12Z</time>
      </trkpt>
      <trkpt lat="44.13732" lon="5.0026">
        <ele>166.71484375</ele>
        <time>2017-04-06T07:43:21Z</time>
      </trkpt>
      <trkpt lat="44.13731" lon="5.00273">
        <ele>167.90625</ele>
        <time>2017-04-06T07:43:32Z</time>
      </trkpt>
      <trkpt lat="44.13729" lon="5.00289">
        <ele>168.640625</ele>
        <time>2017-04-06T07:43:44Z</time>
      </trkpt>
      <trkpt lat="44.13726" lon="5.00304">
        <ele>168.83984375</ele>
        <time>2017-04-06T07:44:00Z</time>
      </trkpt>
      <trkpt lat="44.13725" lon="5.00317">
        <ele>169.171875</ele>
        <time>2017-04-06T07:44:22Z</time>
      </trkpt>
      <trkpt lat="44.13721" lon="5.0033">
        <ele>169.18359375</ele>
        <time>2017-04-06T07:45:02Z</time>
      </trkpt>
      <trkpt lat="44.13719" lon="5.00343">
        <ele>169.2734375</ele>
        <time>2017-04-06T07:45:18Z</time>
      </trkpt>
      <trkpt lat="44.13715" lon="5.0036">
        <ele>168.76953125</ele>
        <time>2017-04-06T07:45:32Z</time>
      </trkpt>
      <trkpt lat="44.13709" lon="5.00374">
        <ele>167.90625</ele>
        <time>2017-04-06T07:45:43Z</time>
      </trkpt>
      <trkpt lat="44.13701" lon="5.00381">
        <ele>166.234375</ele>
        <time>2017-04-06T07:45:54Z</time>
      </trkpt>
      <trkpt lat="44.13693" lon="5.00389">
        <ele>164.5234375</ele>
        <time>2017-04-06T07:46:16Z</time>
      </trkpt>
      <trkpt lat="44.1368" lon="5.00393">
        <ele>161.4609375</ele>
        <time>2017-04-06T07:46:36Z</time>
      </trkpt>
      <trkpt lat="44.13667" lon="5.00395">
        <ele>159.07421875</ele>
        <time>2017-04-06T07:46:48Z</time>
      </trkpt>
      <trkpt lat="44.13655" lon="5.00394">
        <ele>158.296875</ele>
        <time>2017-04-06T07:46:58Z</time>
      </trkpt>
      <trkpt lat="44.13644" lon="5.00388">
        <ele>158.21875</ele>
        <time>2017-04-06T07:47:09Z</time>
      </trkpt>
      <trkpt lat="44.13634" lon="5.00383">
        <ele>158.25</ele>
        <time>2017-04-06T07:47:18Z</time>
      </trkpt>
      <trkpt lat="44.13623" lon="5.00379">
        <ele>158.33984375</ele>
        <time>2017-04-06T07:47:29Z</time>
      </trkpt>
      <trkpt lat="44.13612" lon="5.00376">
        <ele>157.890625</ele>
        <time>2017-04-06T07:47:40Z</time>
      </trkpt>
      <trkpt lat="44.13599" lon="5.00374">
        <ele>156.5546875</ele>
        <time>2017-04-06T07:47:52Z</time>
      </trkpt>
      <trkpt lat="44.13588" lon="5.00379">
        <ele>154.38671875</ele>
        <time>2017-04-06T07:48:03Z</time>
      </trkpt>
      <trkpt lat="44.1358" lon="5.0039">
        <ele>152.0703125</ele>
        <time>2017-04-06T07:48:13Z</time>
      </trkpt>
      <trkpt lat="44.13577" lon="5.00406">
        <ele>151.97265625</ele>
        <time>2017-04-06T07:48:22Z</time>
      </trkpt>
      <trkpt lat="44.13577" lon="5.00421">
        <ele>152.21484375</ele>
        <time>2017-04-06T07:48:31Z</time>
      </trkpt>
      <trkpt lat="44.13577" lon="5.00434">
        <ele>152.4296875</ele>
        <time>2017-04-06T07:48:40Z</time>
      </trkpt>
      <trkpt lat="44.1358" lon="5.00449">
        <ele>153.171875</ele>
        <time>2017-04-06T07:48:50Z</time>
      </trkpt>
      <trkpt lat="44.13581" lon="5.00463">
        <ele>155.109375</ele>
        <time>2017-04-06T07:49:00Z</time>
      </trkpt>
      <trkpt lat="44.13584" lon="5.00476">
        <ele>157.14453125</ele>
        <time>2017-04-06T07:49:09Z</time>
      </trkpt>
      <trkpt lat="44.13589" lon="5.00489">
        <ele>159.33984375</ele>
        <time>2017-04-06T07:49:19Z</time>
      </trkpt>
      <trkpt lat="44.13593" lon="5.005">
        <ele>161.109375</ele>
        <time>2017-04-06T07:49:29Z</time>
      </trkpt>
      <trkpt lat="44.13596" lon="5.00513">
        <ele>163.4375</ele>
        <time>2017-04-06T07:49:39Z</time>
      </trkpt>
      <trkpt lat="44.13599" lon="5.00526">
        <ele>165.93359375</ele>
        <time>2017-04-06T07:49:50Z</time>
      </trkpt>
      <trkpt lat="44.13605" lon="5.00539">
        <ele>167.48828125</ele>
        <time>2017-04-06T07:50:02Z</time>
      </trkpt>
      <trkpt lat="44.13608" lon="5.0055">
        <ele>168.5</ele>
        <time>2017-04-06T07:50:13Z</time>
      </trkpt>
      <trkpt lat="44.13611" lon="5.00564">
        <ele>169.640625</ele>
        <time>2017-04-06T07:50:24Z</time>
      </trkpt>
      <trkpt lat="44.13616" lon="5.00576">
        <ele>170.5</ele>
        <time>2017-04-06T07:50:34Z</time>
      </trkpt>
      <trkpt lat="44.1362" lon="5.00588">
        <ele>171.0390625</ele>
        <time>2017-04-06T07:50:44Z</time>
      </trkpt>
      <trkpt lat="44.13623" lon="5.00599">
        <ele>171.74609375</ele>
        <time>2017-04-06T07:50:54Z</time>
      </trkpt>
      <trkpt lat="44.13626" lon="5.00611">
        <ele>172.64453125</ele>
        <time>2017-04-06T07:51:04Z</time>
      </trkpt>
      <trkpt lat="44.13624" lon="5.00625">
        <ele>173.91796875</ele>
        <time>2017-04-06T07:51:15Z</time>
      </trkpt>
      <trkpt lat="44.13622" lon="5.0064">
        <ele>175.32421875</ele>
        <time>2017-04-06T07:51:26Z</time>
      </trkpt>
      <trkpt lat="44.13621" lon="5.00656">
        <ele>177.58203125</ele>
        <time>2017-04-06T07:51:35Z</time>
      </trkpt>
      <trkpt lat="44.1362" lon="5.00671">
        <ele>179.56640625</ele>
        <time>2017-04-06T07:51:48Z</time>
      </trkpt>
      <trkpt lat="44.13619" lon="5.00686">
        <ele>180.5078125</ele>
        <time>2017-04-06T07:52:00Z</time>
      </trkpt>
      <trkpt lat="44.1362" lon="5.007">
        <ele>181.640625</ele>
        <time>2017-04-06T07:52:11Z</time>
      </trkpt>
      <trkpt lat="44.13619" lon="5.00715">
        <ele>182.578125</ele>
        <time>2017-04-06T07:52:26Z</time>
      </trkpt>
      <trkpt lat="44.13615" lon="5.00722">
        <ele>182.84375</ele>
        <time>2017-04-06T07:52:54Z</time>
      </trkpt>
      <trkpt lat="44.13617" lon="5.00727">
        <ele>183.0234375</ele>
        <time>2017-04-06T07:53:21Z</time>
      </trkpt>
      <trkpt lat="44.13626" lon="5.00726">
        <ele>183.33984375</ele>
        <time>2017-04-06T07:53:47Z</time>
      </trkpt>
      <trkpt lat="44.13638" lon="5.00724">
        <ele>183.7890625</ele>
        <time>2017-04-06T07:54:38Z</time>
      </trkpt>
      <trkpt lat="44.13646" lon="5.00731">
        <ele>184.08203125</ele>
        <time>2017-04-06T07:54:50Z</time>
      </trkpt>
      <trkpt lat="44.13653" lon="5.00741">
        <ele>184.3125</ele>
        <time>2017-04-06T07:55:03Z</time>
      </trkpt>
      <trkpt lat="44.13661" lon="5.0074">
        <ele>184.60546875</ele>
        <time>2017-04-06T07:55:17Z</time>
      </trkpt>
      <trkpt lat="44.13674" lon="5.00731">
        <ele>185</ele>
        <time>2017-04-06T07:55:30Z</time>
      </trkpt>
      <trkpt lat="44.13685" lon="5.00724">
        <ele>185</ele>
        <time>2017-04-06T07:55:39Z</time>
      </trkpt>
      <trkpt lat="44.13696" lon="5.00725">
        <ele>185</ele>
        <time>2017-04-06T07:55:49Z</time>
      </trkpt>
      <trkpt lat="44.13707" lon="5.00736">
        <ele>184.859375</ele>
        <time>2017-04-06T07:55:59Z</time>
      </trkpt>
      <trkpt lat="44.13713" lon="5.00748">
        <ele>184.9609375</ele>
        <time>2017-04-06T07:56:08Z</time>
      </trkpt>
      <trkpt lat="44.13719" lon="5.00757">
        <ele>185.25</ele>
        <time>2017-04-06T07:56:16Z</time>
      </trkpt>
      <trkpt lat="44.13725" lon="5.00768">
        <ele>185.6328125</ele>
        <time>2017-04-06T07:56:24Z</time>
      </trkpt>
      <trkpt lat="44.1373" lon="5.00779">
        <ele>186.10546875</ele>
        <time>2017-04-06T07:56:33Z</time>
      </trkpt>
      <trkpt lat="44.13734" lon="5.00792">
        <ele>186.74609375</ele>
        <time>2017-04-06T07:56:43Z</time>
      </trkpt>
      <trkpt lat="44.1374" lon="5.00804">
        <ele>187.3828125</ele>
        <time>2017-04-06T07:56:53Z</time>
      </trkpt>
      <trkpt lat="44.13746" lon="5.00815">
        <ele>188.23046875</ele>
        <time>2017-04-06T07:57:04Z</time>
      </trkpt>
      <trkpt lat="44.13754" lon="5.00822">
        <ele>189.09375</ele>
        <time>2017-04-06T07:57:14Z</time>
      </trkpt>
      <trkpt lat="44.13764" lon="5.00823">
        <ele>190.01953125</ele>
        <time>2017-04-06T07:57:23Z</time>
      </trkpt>
      <trkpt lat="44.13774" lon="5.00824">
        <ele>190.90625</ele>
        <time>2017-04-06T07:57:32Z</time>
      </trkpt>
      <trkpt lat="44.13784" lon="5.00824">
        <ele>191.74609375</ele>
        <time>2017-04-06T07:57:41Z</time>
      </trkpt>
      <trkpt lat="44.13794" lon="5.00821">
        <ele>192.7109375</ele>
        <time>2017-04-06T07:57:51Z</time>
      </trkpt>
      <trkpt lat="44.13804" lon="5.00817">
        <ele>193.7109375</ele>
        <time>2017-04-06T07:58:01Z</time>
      </trkpt>
      <trkpt lat="44.13814" lon="5.00812">
        <ele>194.5859375</ele>
        <time>2017-04-06T07:58:13Z</time>
      </trkpt>
      <trkpt lat="44.13824" lon="5.00804">
        <ele>195.37109375</ele>
        <time>2017-04-06T07:58:23Z</time>
      </trkpt>
      <trkpt lat="44.13833" lon="5.00796">
        <ele>196.12109375</ele>
        <time>2017-04-06T07:58:33Z</time>
      </trkpt>
      <trkpt lat="44.13842" lon="5.00786">
        <ele>196.609375</ele>
        <time>2017-04-06T07:58:46Z</time>
      </trkpt>
      <trkpt lat="44.13852" lon="5.00779">
        <ele>197.51953125</ele>
        <time>2017-04-06T07:58:56Z</time>
      </trkpt>
      <trkpt lat="44.13862" lon="5.00774">
        <ele>198.31640625</ele>
        <time>2017-04-06T07:59:07Z</time>
      </trkpt>
      <trkpt lat="44.13873" lon="5.00774">
        <ele>198.95703125</ele>
        <time>2017-04-06T07:59:18Z</time>
      </trkpt>
      <trkpt lat="44.13881" lon="5.00781">
        <ele>199.67578125</ele>
        <time>2017-04-06T07:59:27Z</time>
      </trkpt>
      <trkpt lat="44.13887" lon="5.00789">
        <ele>200.4140625</ele>
        <time>2017-04-06T07:59:35Z</time>
      </trkpt>
      <trkpt lat="44.13895" lon="5.00797">
        <ele>201.49609375</ele>
        <time>2017-04-06T07:59:45Z</time>
      </trkpt>
      <trkpt lat="44.13903" lon="5.00806">
        <ele>202.96875</ele>
        <time>2017-04-06T07:59:54Z</time>
      </trkpt>
      <trkpt lat="44.13911" lon="5.00814">
        <ele>204.2890625</ele>
        <time>2017-04-06T08:00:03Z</time>
      </trkpt>
      <trkpt lat="44.13917" lon="5.00823">
        <ele>205.66796875</ele>
        <time>2017-04-06T08:00:15Z</time>
      </trkpt>
      <trkpt lat="44.13925" lon="5.00831">
        <ele>207.16015625</ele>
        <time>2017-04-06T08:00:28Z</time>
      </trkpt>
      <trkpt lat="44.13933" lon="5.00839">
        <ele>208.3203125</ele>
        <time>2017-04-06T08:00:39Z</time>
      </trkpt>
      <trkpt lat="44.13936" lon="5.00852">
        <ele>208.90234375</ele>
        <time>2017-04-06T08:00:54Z</time>
      </trkpt>
      <trkpt lat="44.13941" lon="5.00863">
        <ele>209.98046875</ele>
        <time>2017-04-06T08:01:06Z</time>
      </trkpt>
      <trkpt lat="44.13948" lon="5.00873">
        <ele>211.65234375</ele>
        <time>2017-04-06T08:01:17Z</time>
      </trkpt>
      <trkpt lat="44.13954" lon="5.00882">
        <ele>213.38671875</ele>
        <time>2017-04-06T08:01:32Z</time>
      </trkpt>
      <trkpt lat="44.13964" lon="5.0089">
        <ele>215.546875</ele>
        <time>2017-04-06T08:01:43Z</time>
      </trkpt>
      <trkpt lat="44.13972" lon="5.00899">
        <ele>217.38671875</ele>
        <time>2017-04-06T08:01:57Z</time>
      </trkpt>
      <trkpt lat="44.1398" lon="5.00907">
        <ele>219.0625</ele>
        <time>2017-04-06T08:02:12Z</time>
      </trkpt>
      <trkpt lat="44.13989" lon="5.00915">
        <ele>221.06640625</ele>
        <time>2017-04-06T08:02:26Z</time>
      </trkpt>
      <trkpt lat="44.13999" lon="5.00918">
        <ele>222.8984375</ele>
        <time>2017-04-06T08:02:41Z</time>
      </trkpt>
      <trkpt lat="44.14011" lon="5.00922">
        <ele>225.171875</ele>
        <time>2017-04-06T08:02:51Z</time>
      </trkpt>
      <trkpt lat="44.14022" lon="5.00929">
        <ele>227.23046875</ele>
        <time>2017-04-06T08:03:03Z</time>
      </trkpt>
      <trkpt lat="44.1403" lon="5.00937">
        <ele>228.64453125</ele>
        <time>2017-04-06T08:03:13Z</time>
      </trkpt>
      <trkpt lat="44.14037" lon="5.00946">
        <ele>230.04296875</ele>
        <time>2017-04-06T08:03:22Z</time>
      </trkpt>
      <trkpt lat="44.14046" lon="5.00954">
        <ele>232.34765625</ele>
        <time>2017-04-06T08:03:34Z</time>
      </trkpt>
      <trkpt lat="44.14053" lon="5.00963">
        <ele>234.15625</ele>
        <time>2017-04-06T08:03:48Z</time>
      </trkpt>
      <trkpt lat="44.14063" lon="5.00969">
        <ele>236.43359375</ele>
        <time>2017-04-06T08:03:59Z</time>
      </trkpt>
      <trkpt lat="44.14073" lon="5.00972">
        <ele>238.73046875</ele>
        <time>2017-04-06T08:04:11Z</time>
      </trkpt>
      <trkpt lat="44.14083" lon="5.00977">
        <ele>241.015625</ele>
        <time>2017-04-06T08:04:22Z</time>
      </trkpt>
      <trkpt lat="44.1409" lon="5.00987">
        <ele>243.0078125</ele>
        <time>2017-04-06T08:04:33Z</time>
      </trkpt>
      <trkpt lat="44.14085" lon="5.01001">
        <ele>242.4765625</ele>
        <time>2017-04-06T08:04:43Z</time>
      </trkpt>
      <trkpt lat="44.14077" lon="5.0101">
        <ele>243.890625</ele>
        <time>2017-04-06T08:04:54Z</time>
      </trkpt>
      <trkpt lat="44.14071" lon="5.01024">
        <ele>246.796875</ele>
        <time>2017-04-06T08:05:05Z</time>
      </trkpt>
      <trkpt lat="44.14064" lon="5.01037">
        <ele>249.02734375</ele>
        <time>2017-04-06T08:05:17Z</time>
      </trkpt>
      <trkpt lat="44.14055" lon="5.01047">
        <ele>250.31640625</ele>
        <time>2017-04-06T08:05:29Z</time>
      </trkpt>
      <trkpt lat="44.14043" lon="5.01053">
        <ele>250.22265625</ele>
        <time>2017-04-06T08:05:41Z</time>
      </trkpt>
      <trkpt lat="44.14034" lon="5.0106">
        <ele>250.42578125</ele>
        <time>2017-04-06T08:05:53Z</time>
      </trkpt>
      <trkpt lat="44.14025" lon="5.01069">
        <ele>250.859375</ele>
        <time>2017-04-06T08:06:04Z</time>
      </trkpt>
      <trkpt lat="44.14025" lon="5.01078">
        <ele>253.34765625</ele>
        <time>2017-04-06T08:06:15Z</time>
      </trkpt>
      <trkpt lat="44.14032" lon="5.01083">
        <ele>255.640625</ele>
        <time>2017-04-06T08:06:27Z</time>
      </trkpt>
      <trkpt lat="44.14041" lon="5.01082">
        <ele>257.0703125</ele>
        <time>2017-04-06T08:06:39Z</time>
      </trkpt>
      <trkpt lat="44.14051" lon="5.0108">
        <ele>258.57421875</ele>
        <time>2017-04-06T08:06:54Z</time>
      </trkpt>
      <trkpt lat="44.14063" lon="5.01078">
        <ele>260.05859375</ele>
        <time>2017-04-06T08:07:09Z</time>
      </trkpt>
      <trkpt lat="44.14072" lon="5.01079">
        <ele>261.51953125</ele>
        <time>2017-04-06T08:07:24Z</time>
      </trkpt>
      <trkpt lat="44.14085" lon="5.01075">
        <ele>262.68359375</ele>
        <time>2017-04-06T08:07:41Z</time>
      </trkpt>
      <trkpt lat="44.14097" lon="5.0107">
        <ele>262.796875</ele>
        <time>2017-04-06T08:07:53Z</time>
      </trkpt>
      <trkpt lat="44.1411" lon="5.01064">
        <ele>262.921875</ele>
        <time>2017-04-06T08:08:05Z</time>
      </trkpt>
      <trkpt lat="44.14126" lon="5.0106">
        <ele>264.03125</ele>
        <time>2017-04-06T08:08:21Z</time>
      </trkpt>
      <trkpt lat="44.14136" lon="5.01062">
        <ele>265.6953125</ele>
        <time>2017-04-06T08:08:37Z</time>
      </trkpt>
      <trkpt lat="44.14154" lon="5.01069">
        <ele>268.91015625</ele>
        <time>2017-04-06T08:08:51Z</time>
      </trkpt>
      <trkpt lat="44.14167" lon="5.01076">
        <ele>271.12109375</ele>
        <time>2017-04-06T08:09:04Z</time>
      </trkpt>
      <trkpt lat="44.14173" lon="5.01085">
        <ele>272.33203125</ele>
        <time>2017-04-06T08:09:18Z</time>
      </trkpt>
      <trkpt lat="44.14175" lon="5.01098">
        <ele>273.4453125</ele>
        <time>2017-04-06T08:09:33Z</time>
      </trkpt>
      <trkpt lat="44.14165" lon="5.01104">
        <ele>272.94921875</ele>
        <time>2017-04-06T08:09:49Z</time>
      </trkpt>
      <trkpt lat="44.14163" lon="5.01111">
        <ele>273.296875</ele>
        <time>2017-04-06T08:11:42Z</time>
      </trkpt>
      <trkpt lat="44.14163" lon="5.01125">
        <ele>275.3203125</ele>
        <time>2017-04-06T08:11:55Z</time>
      </trkpt>
      <trkpt lat="44.14164" lon="5.01136">
        <ele>277.03125</ele>
        <time>2017-04-06T08:12:06Z</time>
      </trkpt>
      <trkpt lat="44.14165" lon="5.01152">
        <ele>279.85546875</ele>
        <time>2017-04-06T08:12:18Z</time>
      </trkpt>
      <trkpt lat="44.14169" lon="5.01168">
        <ele>282.921875</ele>
        <time>2017-04-06T08:12:30Z</time>
      </trkpt>
      <trkpt lat="44.14175" lon="5.01181">
        <ele>285.8515625</ele>
        <time>2017-04-06T08:12:43Z</time>
      </trkpt>
      <trkpt lat="44.14187" lon="5.01185">
        <ele>287.54296875</ele>
        <time>2017-04-06T08:13:04Z</time>
      </trkpt>
      <trkpt lat="44.14199" lon="5.01187">
        <ele>288.89453125</ele>
        <time>2017-04-06T08:13:20Z</time>
      </trkpt>
      <trkpt lat="44.14212" lon="5.0118">
        <ele>289.6875</ele>
        <time>2017-04-06T08:13:38Z</time>
      </trkpt>
      <trkpt lat="44.14225" lon="5.01172">
        <ele>290.47265625</ele>
        <time>2017-04-06T08:13:53Z</time>
      </trkpt>
      <trkpt lat="44.14236" lon="5.01162">
        <ele>290.65234375</ele>
        <time>2017-04-06T08:14:08Z</time>
      </trkpt>
      <trkpt lat="44.14246" lon="5.01153">
        <ele>291.05859375</ele>
        <time>2017-04-06T08:14:23Z</time>
      </trkpt>
      <trkpt lat="44.14256" lon="5.01148">
        <ele>292.11328125</ele>
        <time>2017-04-06T08:14:35Z</time>
      </trkpt>
      <trkpt lat="44.14266" lon="5.01144">
        <ele>293.3984375</ele>
        <time>2017-04-06T08:14:46Z</time>
      </trkpt>
      <trkpt lat="44.14278" lon="5.01135">
        <ele>294.59765625</ele>
        <time>2017-04-06T08:14:57Z</time>
      </trkpt>
      <trkpt lat="44.14289" lon="5.01125">
        <ele>295.53515625</ele>
        <time>2017-04-06T08:15:07Z</time>
      </trkpt>
      <trkpt lat="44.143" lon="5.01111">
        <ele>296.171875</ele>
        <time>2017-04-06T08:15:18Z</time>
      </trkpt>
      <trkpt lat="44.14308" lon="5.01098">
        <ele>296.64453125</ele>
        <time>2017-04-06T08:15:50Z</time>
      </trkpt>
      <trkpt lat="44.14313" lon="5.01089">
        <ele>296.95703125</ele>
        <time>2017-04-06T08:16:10Z</time>
      </trkpt>
      <trkpt lat="44.14319" lon="5.01081">
        <ele>297.7265625</ele>
        <time>2017-04-06T08:16:55Z</time>
      </trkpt>
      <trkpt lat="44.1433" lon="5.01075">
        <ele>299.6171875</ele>
        <time>2017-04-06T08:17:21Z</time>
      </trkpt>
      <trkpt lat="44.1435" lon="5.0108">
        <ele>304.18359375</ele>
        <time>2017-04-06T08:17:37Z</time>
      </trkpt>
      <trkpt lat="44.14361" lon="5.01087">
        <ele>307.34375</ele>
        <time>2017-04-06T08:18:06Z</time>
      </trkpt>
      <trkpt lat="44.14362" lon="5.01097">
        <ele>308.9765625</ele>
        <time>2017-04-06T08:18:21Z</time>
      </trkpt>
      <trkpt lat="44.14353" lon="5.01107">
        <ele>307.85546875</ele>
        <time>2017-04-06T08:18:38Z</time>
      </trkpt>
      <trkpt lat="44.14346" lon="5.01122">
        <ele>307.1171875</ele>
        <time>2017-04-06T08:18:50Z</time>
      </trkpt>
      <trkpt lat="44.14347" lon="5.01136">
        <ele>308.4140625</ele>
        <time>2017-04-06T08:19:06Z</time>
      </trkpt>
      <trkpt lat="44.14355" lon="5.01146">
        <ele>310.66796875</ele>
        <time>2017-04-06T08:19:19Z</time>
      </trkpt>
      <trkpt lat="44.14364" lon="5.01153">
        <ele>312.984375</ele>
        <time>2017-04-06T08:19:31Z</time>
      </trkpt>
      <trkpt lat="44.14373" lon="5.01154">
        <ele>313.609375</ele>
        <time>2017-04-06T08:19:48Z</time>
      </trkpt>
      <trkpt lat="44.14384" lon="5.0115">
        <ele>314.01953125</ele>
        <time>2017-04-06T08:20:04Z</time>
      </trkpt>
      <trkpt lat="44.14395" lon="5.01145">
        <ele>314.44921875</ele>
        <time>2017-04-06T08:20:18Z</time>
      </trkpt>
      <trkpt lat="44.14404" lon="5.01143">
        <ele>313.5234375</ele>
        <time>2017-04-06T08:20:37Z</time>
      </trkpt>
      <trkpt lat="44.14414" lon="5.01144">
        <ele>312.2265625</ele>
        <time>2017-04-06T08:20:56Z</time>
      </trkpt>
      <trkpt lat="44.14426" lon="5.01145">
        <ele>310.44921875</ele>
        <time>2017-04-06T08:21:07Z</time>
      </trkpt>
      <trkpt lat="44.14455" lon="5.01141">
        <ele>306.58984375</ele>
        <time>2017-04-06T08:21:21Z</time>
      </trkpt>
      <trkpt lat="44.14469" lon="5.01137">
        <ele>305.84765625</ele>
        <time>2017-04-06T08:21:36Z</time>
      </trkpt>
      <trkpt lat="44.14483" lon="5.0113">
        <ele>307.1015625</ele>
        <time>2017-04-06T08:21:51Z</time>
      </trkpt>
      <trkpt lat="44.14489" lon="5.0112">
        <ele>308.80859375</ele>
        <time>2017-04-06T08:22:14Z</time>
      </trkpt>
      <trkpt lat="44.14498" lon="5.01106">
        <ele>310.67578125</ele>
        <time>2017-04-06T08:22:32Z</time>
      </trkpt>
      <trkpt lat="44.14512" lon="5.01096">
        <ele>312.01171875</ele>
        <time>2017-04-06T08:22:50Z</time>
      </trkpt>
      <trkpt lat="44.1452" lon="5.01086">
        <ele>313.296875</ele>
        <time>2017-04-06T08:23:08Z</time>
      </trkpt>
      <trkpt lat="44.14525" lon="5.01077">
        <ele>314.84375</ele>
        <time>2017-04-06T08:23:24Z</time>
      </trkpt>
      <trkpt lat="44.14535" lon="5.01068">
        <ele>317.03515625</ele>
        <time>2017-04-06T08:23:44Z</time>
      </trkpt>
      <trkpt lat="44.14542" lon="5.01056">
        <ele>319.6796875</ele>
        <time>2017-04-06T08:23:55Z</time>
      </trkpt>
      <trkpt lat="44.14549" lon="5.01044">
        <ele>320.890625</ele>
        <time>2017-04-06T08:24:07Z</time>
      </trkpt>
      <trkpt lat="44.14564" lon="5.01033">
        <ele>323.359375</ele>
        <time>2017-04-06T08:24:22Z</time>
      </trkpt>
      <trkpt lat="44.14578" lon="5.01022">
        <ele>326.44921875</ele>
        <time>2017-04-06T08:24:33Z</time>
      </trkpt>
      <trkpt lat="44.14588" lon="5.01009">
        <ele>329.3203125</ele>
        <time>2017-04-06T08:24:44Z</time>
      </trkpt>
      <trkpt lat="44.14595" lon="5.00993">
        <ele>330.90234375</ele>
        <time>2017-04-06T08:24:57Z</time>
      </trkpt>
      <trkpt lat="44.14601" lon="5.00979">
        <ele>330.37890625</ele>
        <time>2017-04-06T08:25:08Z</time>
      </trkpt>
      <trkpt lat="44.14608" lon="5.00968">
        <ele>331.06640625</ele>
        <time>2017-04-06T08:25:19Z</time>
      </trkpt>
      <trkpt lat="44.14615" lon="5.00956">
        <ele>332.09765625</ele>
        <time>2017-04-06T08:25:30Z</time>
      </trkpt>
      <trkpt lat="44.14621" lon="5.00943">
        <ele>332.80078125</ele>
        <time>2017-04-06T08:25:42Z</time>
      </trkpt>
      <trkpt lat="44.14626" lon="5.00925">
        <ele>331.92578125</ele>
        <time>2017-04-06T08:25:57Z</time>
      </trkpt>
      <trkpt lat="44.14627" lon="5.00908">
        <ele>331.359375</ele>
        <time>2017-04-06T08:26:09Z</time>
      </trkpt>
      <trkpt lat="44.14625" lon="5.00891">
        <ele>330.125</ele>
        <time>2017-04-06T08:26:20Z</time>
      </trkpt>
      <trkpt lat="44.14621" lon="5.00877">
        <ele>328.80859375</ele>
        <time>2017-04-06T08:26:30Z</time>
      </trkpt>
      <trkpt lat="44.14618" lon="5.00862">
        <ele>327.99609375</ele>
        <time>2017-04-06T08:26:45Z</time>
      </trkpt>
      <trkpt lat="44.14616" lon="5.00847">
        <ele>326.4296875</ele>
        <time>2017-04-06T08:26:57Z</time>
      </trkpt>
      <trkpt lat="44.14612" lon="5.0083">
        <ele>324.484375</ele>
        <time>2017-04-06T08:27:09Z</time>
      </trkpt>
      <trkpt lat="44.14616" lon="5.00817">
        <ele>324.75</ele>
        <time>2017-04-06T08:27:22Z</time>
      </trkpt>
      <trkpt lat="44.14622" lon="5.00806">
        <ele>326.03515625</ele>
        <time>2017-04-06T08:27:33Z</time>
      </trkpt>
      <trkpt lat="44.14628" lon="5.00794">
        <ele>326.51953125</ele>
        <time>2017-04-06T08:27:47Z</time>
      </trkpt>
      <trkpt lat="44.14637" lon="5.00788">
        <ele>328.3515625</ele>
        <time>2017-04-06T08:28:00Z</time>
      </trkpt>
      <trkpt lat="44.14645" lon="5.00778">
        <ele>329.20703125</ele>
        <time>2017-04-06T08:28:12Z</time>
      </trkpt>
      <trkpt lat="44.14651" lon="5.00765">
        <ele>328.50390625</ele>
        <time>2017-04-06T08:28:25Z</time>
      </trkpt>
      <trkpt lat="44.14657" lon="5.00752">
        <ele>327.5625</ele>
        <time>2017-04-06T08:28:39Z</time>
      </trkpt>
      <trkpt lat="44.1466" lon="5.00736">
        <ele>325.32421875</ele>
        <time>2017-04-06T08:28:51Z</time>
      </trkpt>
      <trkpt lat="44.14662" lon="5.00722">
        <ele>323.05078125</ele>
        <time>2017-04-06T08:29:00Z</time>
      </trkpt>
      <trkpt lat="44.14663" lon="5.00707">
        <ele>321.44140625</ele>
        <time>2017-04-06T08:29:11Z</time>
      </trkpt>
      <trkpt lat="44.14669" lon="5.00693">
        <ele>321.08203125</ele>
        <time>2017-04-06T08:29:21Z</time>
      </trkpt>
      <trkpt lat="44.14673" lon="5.0068">
        <ele>320.28125</ele>
        <time>2017-04-06T08:29:32Z</time>
      </trkpt>
      <trkpt lat="44.14679" lon="5.00669">
        <ele>320.0546875</ele>
        <time>2017-04-06T08:29:45Z</time>
      </trkpt>
      <trkpt lat="44.14687" lon="5.00661">
        <ele>320.7109375</ele>
        <time>2017-04-06T08:29:59Z</time>
      </trkpt>
      <trkpt lat="44.14697" lon="5.00659">
        <ele>322.5</ele>
        <time>2017-04-06T08:30:11Z</time>
      </trkpt>
      <trkpt lat="44.14707" lon="5.00654">
        <ele>320.93359375</ele>
        <time>2017-04-06T08:30:21Z</time>
      </trkpt>
      <trkpt lat="44.14717" lon="5.00648">
        <ele>318.59765625</ele>
        <time>2017-04-06T08:30:32Z</time>
      </trkpt>
      <trkpt lat="44.14727" lon="5.00641">
        <ele>316.3203125</ele>
        <time>2017-04-06T08:30:45Z</time>
      </trkpt>
      <trkpt lat="44.14737" lon="5.00637">
        <ele>313.66015625</ele>
        <time>2017-04-06T08:30:56Z</time>
      </trkpt>
      <trkpt lat="44.14748" lon="5.00636">
        <ele>311.4765625</ele>
        <time>2017-04-06T08:31:07Z</time>
      </trkpt>
      <trkpt lat="44.14758" lon="5.00636">
        <ele>310.25</ele>
        <time>2017-04-06T08:31:18Z</time>
      </trkpt>
      <trkpt lat="44.14768" lon="5.00638">
        <ele>310.3046875</ele>
        <time>2017-04-06T08:31:32Z</time>
      </trkpt>
      <trkpt lat="44.1478" lon="5.00641">
        <ele>310.40234375</ele>
        <time>2017-04-06T08:31:46Z</time>
      </trkpt>
      <trkpt lat="44.14784" lon="5.00644">
        <ele>310.94140625</ele>
        <time>2017-04-06T08:36:41Z</time>
      </trkpt>
      <trkpt lat="44.14785" lon="5.00648">
        <ele>311.5625</ele>
        <time>2017-04-06T08:39:01Z</time>
      </trkpt>
      <trkpt lat="44.14795" lon="5.00651">
        <ele>312.3671875</ele>
        <time>2017-04-06T08:39:26Z</time>
      </trkpt>
      <trkpt lat="44.14799" lon="5.00663">
        <ele>314.4140625</ele>
        <time>2017-04-06T08:39:42Z</time>
      </trkpt>
      <trkpt lat="44.14804" lon="5.00677">
        <ele>317.34375</ele>
        <time>2017-04-06T08:39:55Z</time>
      </trkpt>
      <trkpt lat="44.14812" lon="5.00685">
        <ele>319.54296875</ele>
        <time>2017-04-06T08:40:06Z</time>
      </trkpt>
      <trkpt lat="44.14819" lon="5.00689">
        <ele>321.51171875</ele>
        <time>2017-04-06T08:40:17Z</time>
      </trkpt>
      <trkpt lat="44.14829" lon="5.00695">
        <ele>323.90625</ele>
        <time>2017-04-06T08:40:31Z</time>
      </trkpt>
      <trkpt lat="44.14839" lon="5.00701">
        <ele>327.20703125</ele>
        <time>2017-04-06T08:40:46Z</time>
      </trkpt>
      <trkpt lat="44.14849" lon="5.00708">
        <ele>329.71875</ele>
        <time>2017-04-06T08:40:58Z</time>
      </trkpt>
      <trkpt lat="44.1486" lon="5.00712">
        <ele>331.15625</ele>
        <time>2017-04-06T08:41:09Z</time>
      </trkpt>
      <trkpt lat="44.14869" lon="5.00716">
        <ele>332.25390625</ele>
        <time>2017-04-06T08:41:20Z</time>
      </trkpt>
      <trkpt lat="44.14878" lon="5.0072">
        <ele>333.34375</ele>
        <time>2017-04-06T08:41:32Z</time>
      </trkpt>
      <trkpt lat="44.14885" lon="5.00726">
        <ele>334.765625</ele>
        <time>2017-04-06T08:41:48Z</time>
      </trkpt>
      <trkpt lat="44.14897" lon="5.00726">
        <ele>335.1640625</ele>
        <time>2017-04-06T08:41:59Z</time>
      </trkpt>
      <trkpt lat="44.14911" lon="5.00716">
        <ele>334.046875</ele>
        <time>2017-04-06T08:42:11Z</time>
      </trkpt>
      <trkpt lat="44.14919" lon="5.00706">
        <ele>333.328125</ele>
        <time>2017-04-06T08:42:22Z</time>
      </trkpt>
      <trkpt lat="44.14927" lon="5.00697">
        <ele>332.87890625</ele>
        <time>2017-04-06T08:42:31Z</time>
      </trkpt>
      <trkpt lat="44.14935" lon="5.00688">
        <ele>332.703125</ele>
        <time>2017-04-06T08:42:40Z</time>
      </trkpt>
      <trkpt lat="44.14943" lon="5.0068">
        <ele>333.046875</ele>
        <time>2017-04-06T08:42:50Z</time>
      </trkpt>
      <trkpt lat="44.14953" lon="5.0068">
        <ele>334.56640625</ele>
        <time>2017-04-06T08:43:01Z</time>
      </trkpt>
      <trkpt lat="44.1496" lon="5.00687">
        <ele>336.27734375</ele>
        <time>2017-04-06T08:43:13Z</time>
      </trkpt>
      <trkpt lat="44.14967" lon="5.00696">
        <ele>337.64453125</ele>
        <time>2017-04-06T08:43:24Z</time>
      </trkpt>
      <trkpt lat="44.14973" lon="5.00706">
        <ele>339.37890625</ele>
        <time>2017-04-06T08:43:37Z</time>
      </trkpt>
      <trkpt lat="44.14979" lon="5.00714">
        <ele>340.6640625</ele>
        <time>2017-04-06T08:43:48Z</time>
      </trkpt>
      <trkpt lat="44.14989" lon="5.00717">
        <ele>341.734375</ele>
        <time>2017-04-06T08:44:02Z</time>
      </trkpt>
      <trkpt lat="44.14998" lon="5.00724">
        <ele>342.765625</ele>
        <time>2017-04-06T08:44:36Z</time>
      </trkpt>
      <trkpt lat="44.15006" lon="5.00734">
        <ele>344.2265625</ele>
        <time>2017-04-06T08:44:48Z</time>
      </trkpt>
      <trkpt lat="44.15013" lon="5.00744">
        <ele>345.23046875</ele>
        <time>2017-04-06T08:45:00Z</time>
      </trkpt>
      <trkpt lat="44.15022" lon="5.0075">
        <ele>345.359375</ele>
        <time>2017-04-06T08:45:12Z</time>
      </trkpt>
      <trkpt lat="44.15031" lon="5.00756">
        <ele>345.48828125</ele>
        <time>2017-04-06T08:45:32Z</time>
      </trkpt>
      <trkpt lat="44.1504" lon="5.00765">
        <ele>344.953125</ele>
        <time>2017-04-06T08:45:45Z</time>
      </trkpt>
      <trkpt lat="44.15048" lon="5.00775">
        <ele>344.0390625</ele>
        <time>2017-04-06T08:45:57Z</time>
      </trkpt>
      <trkpt lat="44.15057" lon="5.00781">
        <ele>342.73828125</ele>
        <time>2017-04-06T08:46:10Z</time>
      </trkpt>
      <trkpt lat="44.15063" lon="5.00791">
        <ele>342.66796875</ele>
        <time>2017-04-06T08:46:24Z</time>
      </trkpt>
      <trkpt lat="44.15065" lon="5.00804">
        <ele>343.53515625</ele>
        <time>2017-04-06T08:46:34Z</time>
      </trkpt>
      <trkpt lat="44.15067" lon="5.0082">
        <ele>345.10546875</ele>
        <time>2017-04-06T08:46:50Z</time>
      </trkpt>
      <trkpt lat="44.15069" lon="5.00838">
        <ele>346.9296875</ele>
        <time>2017-04-06T08:47:06Z</time>
      </trkpt>
      <trkpt lat="44.15067" lon="5.00854">
        <ele>350.12890625</ele>
        <time>2017-04-06T08:47:21Z</time>
      </trkpt>
      <trkpt lat="44.15069" lon="5.0087">
        <ele>351.48828125</ele>
        <time>2017-04-06T08:47:39Z</time>
      </trkpt>
      <trkpt lat="44.15074" lon="5.00887">
        <ele>352.31640625</ele>
        <time>2017-04-06T08:48:03Z</time>
      </trkpt>
      <trkpt lat="44.15072" lon="5.00903">
        <ele>354.90625</ele>
        <time>2017-04-06T08:48:16Z</time>
      </trkpt>
      <trkpt lat="44.15071" lon="5.00916">
        <ele>357.1171875</ele>
        <time>2017-04-06T08:48:28Z</time>
      </trkpt>
      <trkpt lat="44.1507" lon="5.00933">
        <ele>359.70703125</ele>
        <time>2017-04-06T08:48:43Z</time>
      </trkpt>
      <trkpt lat="44.15073" lon="5.00956">
        <ele>362.08984375</ele>
        <time>2017-04-06T08:48:59Z</time>
      </trkpt>
      <trkpt lat="44.15077" lon="5.0097">
        <ele>363.01953125</ele>
        <time>2017-04-06T08:49:09Z</time>
      </trkpt>
      <trkpt lat="44.15077" lon="5.00987">
        <ele>365.61328125</ele>
        <time>2017-04-06T08:49:20Z</time>
      </trkpt>
      <trkpt lat="44.15079" lon="5.01002">
        <ele>367.75</ele>
        <time>2017-04-06T08:49:31Z</time>
      </trkpt>
      <trkpt lat="44.15078" lon="5.01017">
        <ele>370.08984375</ele>
        <time>2017-04-06T08:49:43Z</time>
      </trkpt>
      <trkpt lat="44.15074" lon="5.01036">
        <ele>372.69140625</ele>
        <time>2017-04-06T08:49:57Z</time>
      </trkpt>
      <trkpt lat="44.1507" lon="5.01052">
        <ele>374.08203125</ele>
        <time>2017-04-06T08:50:12Z</time>
      </trkpt>
      <trkpt lat="44.15064" lon="5.01066">
        <ele>375.0546875</ele>
        <time>2017-04-06T08:50:24Z</time>
      </trkpt>
      <trkpt lat="44.15057" lon="5.0108">
        <ele>375.44140625</ele>
        <time>2017-04-06T08:50:34Z</time>
      </trkpt>
      <trkpt lat="44.15049" lon="5.01092">
        <ele>375.109375</ele>
        <time>2017-04-06T08:50:48Z</time>
      </trkpt>
      <trkpt lat="44.15046" lon="5.01104">
        <ele>375.2578125</ele>
        <time>2017-04-06T08:51:41Z</time>
      </trkpt>
      <trkpt lat="44.15042" lon="5.01115">
        <ele>374.90234375</ele>
        <time>2017-04-06T08:52:39Z</time>
      </trkpt>
      <trkpt lat="44.1505" lon="5.01128">
        <ele>376.6171875</ele>
        <time>2017-04-06T08:52:52Z</time>
      </trkpt>
      <trkpt lat="44.15059" lon="5.01136">
        <ele>378.78125</ele>
        <time>2017-04-06T08:53:05Z</time>
      </trkpt>
      <trkpt lat="44.15069" lon="5.01142">
        <ele>381.41015625</ele>
        <time>2017-04-06T08:53:17Z</time>
      </trkpt>
      <trkpt lat="44.15079" lon="5.01149">
        <ele>384.171875</ele>
        <time>2017-04-06T08:53:32Z</time>
      </trkpt>
      <trkpt lat="44.15091" lon="5.0115">
        <ele>387.34765625</ele>
        <time>2017-04-06T08:53:45Z</time>
      </trkpt>
      <trkpt lat="44.151" lon="5.01146">
        <ele>390.01171875</ele>
        <time>2017-04-06T08:54:16Z</time>
      </trkpt>
      <trkpt lat="44.1511" lon="5.01143">
        <ele>393.19921875</ele>
        <time>2017-04-06T08:56:05Z</time>
      </trkpt>
      <trkpt lat="44.15117" lon="5.0115">
        <ele>395.390625</ele>
        <time>2017-04-06T08:56:39Z</time>
      </trkpt>
      <trkpt lat="44.15127" lon="5.01162">
        <ele>398.140625</ele>
        <time>2017-04-06T08:56:57Z</time>
      </trkpt>
      <trkpt lat="44.15133" lon="5.01176">
        <ele>399.828125</ele>
        <time>2017-04-06T08:57:12Z</time>
      </trkpt>
      <trkpt lat="44.15139" lon="5.01186">
        <ele>401.73046875</ele>
        <time>2017-04-06T08:57:28Z</time>
      </trkpt>
      <trkpt lat="44.15143" lon="5.012">
        <ele>403.25</ele>
        <time>2017-04-06T08:57:49Z</time>
      </trkpt>
      <trkpt lat="44.15151" lon="5.01217">
        <ele>407.01171875</ele>
        <time>2017-04-06T08:58:05Z</time>
      </trkpt>
      <trkpt lat="44.15164" lon="5.01225">
        <ele>413.3828125</ele>
        <time>2017-04-06T08:58:22Z</time>
      </trkpt>
      <trkpt lat="44.15175" lon="5.0123">
        <ele>419.234375</ele>
        <time>2017-04-06T08:58:39Z</time>
      </trkpt>
      <trkpt lat="44.15185" lon="5.0124">
        <ele>426.421875</ele>
        <time>2017-04-06T08:59:00Z</time>
      </trkpt>
      <trkpt lat="44.15189" lon="5.01252">
        <ele>430.46484375</ele>
        <time>2017-04-06T08:59:21Z</time>
      </trkpt>
      <trkpt lat="44.15191" lon="5.01266">
        <ele>433.82421875</ele>
        <time>2017-04-06T08:59:52Z</time>
      </trkpt>
      <trkpt lat="44.15196" lon="5.01283">
        <ele>438.26953125</ele>
        <time>2017-04-06T09:00:18Z</time>
      </trkpt>
      <trkpt lat="44.15197" lon="5.013">
        <ele>439.89453125</ele>
        <time>2017-04-06T09:00:38Z</time>
      </trkpt>
      <trkpt lat="44.152" lon="5.01314">
        <ele>442.40625</ele>
        <time>2017-04-06T09:00:54Z</time>
      </trkpt>
      <trkpt lat="44.15203" lon="5.01327">
        <ele>445.4765625</ele>
        <time>2017-04-06T09:01:07Z</time>
      </trkpt>
      <trkpt lat="44.15206" lon="5.01344">
        <ele>447.38671875</ele>
        <time>2017-04-06T09:01:24Z</time>
      </trkpt>
      <trkpt lat="44.15209" lon="5.01349">
        <ele>448.76171875</ele>
        <time>2017-04-06T09:02:33Z</time>
      </trkpt>
      <trkpt lat="44.1521" lon="5.01345">
        <ele>449.95703125</ele>
        <time>2017-04-06T09:05:35Z</time>
      </trkpt>
      <trkpt lat="44.15207" lon="5.01352">
        <ele>447.72265625</ele>
        <time>2017-04-06T09:07:46Z</time>
      </trkpt>
      <trkpt lat="44.15207" lon="5.01366">
        <ele>447.2109375</ele>
        <time>2017-04-06T09:08:00Z</time>
      </trkpt>
      <trkpt lat="44.15208" lon="5.01381">
        <ele>447.5703125</ele>
        <time>2017-04-06T09:08:11Z</time>
      </trkpt>
      <trkpt lat="44.15209" lon="5.01397">
        <ele>447.671875</ele>
        <time>2017-04-06T09:08:24Z</time>
      </trkpt>
      <trkpt lat="44.1521" lon="5.01414">
        <ele>448.07421875</ele>
        <time>2017-04-06T09:08:34Z</time>
      </trkpt>
      <trkpt lat="44.15215" lon="5.01432">
        <ele>449.3359375</ele>
        <time>2017-04-06T09:08:46Z</time>
      </trkpt>
      <trkpt lat="44.15217" lon="5.01447">
        <ele>448.6875</ele>
        <time>2017-04-06T09:08:55Z</time>
      </trkpt>
      <trkpt lat="44.1522" lon="5.01466">
        <ele>448.34375</ele>
        <time>2017-04-06T09:09:07Z</time>
      </trkpt>
      <trkpt lat="44.15224" lon="5.01481">
        <ele>448.5546875</ele>
        <time>2017-04-06T09:09:15Z</time>
      </trkpt>
      <trkpt lat="44.15228" lon="5.01495">
        <ele>448.63671875</ele>
        <time>2017-04-06T09:09:23Z</time>
      </trkpt>
      <trkpt lat="44.15231" lon="5.01507">
        <ele>449.00390625</ele>
        <time>2017-04-06T09:09:31Z</time>
      </trkpt>
      <trkpt lat="44.15234" lon="5.0152">
        <ele>450.0625</ele>
        <time>2017-04-06T09:09:39Z</time>
      </trkpt>
      <trkpt lat="44.15237" lon="5.01534">
        <ele>450.91015625</ele>
        <time>2017-04-06T09:09:47Z</time>
      </trkpt>
      <trkpt lat="44.1524" lon="5.01549">
        <ele>451.49609375</ele>
        <time>2017-04-06T09:09:56Z</time>
      </trkpt>
      <trkpt lat="44.15243" lon="5.01562">
        <ele>452.265625</ele>
        <time>2017-04-06T09:10:04Z</time>
      </trkpt>
      <trkpt lat="44.15247" lon="5.01577">
        <ele>453.21484375</ele>
        <time>2017-04-06T09:10:13Z</time>
      </trkpt>
      <trkpt lat="44.1525" lon="5.01593">
        <ele>453.453125</ele>
        <time>2017-04-06T09:10:23Z</time>
      </trkpt>
      <trkpt lat="44.15253" lon="5.01608">
        <ele>453.484375</ele>
        <time>2017-04-06T09:10:33Z</time>
      </trkpt>
      <trkpt lat="44.15256" lon="5.01623">
        <ele>453.7109375</ele>
        <time>2017-04-06T09:10:42Z</time>
      </trkpt>
      <trkpt lat="44.15259" lon="5.01637">
        <ele>453.5</ele>
        <time>2017-04-06T09:10:52Z</time>
      </trkpt>
      <trkpt lat="44.15262" lon="5.01655">
        <ele>452.61328125</ele>
        <time>2017-04-06T09:11:02Z</time>
      </trkpt>
      <trkpt lat="44.15267" lon="5.01667">
        <ele>453.71875</ele>
        <time>2017-04-06T09:11:11Z</time>
      </trkpt>
      <trkpt lat="44.15271" lon="5.0168">
        <ele>454.62109375</ele>
        <time>2017-04-06T09:11:20Z</time>
      </trkpt>
      <trkpt lat="44.15275" lon="5.01695">
        <ele>455.40234375</ele>
        <time>2017-04-06T09:11:29Z</time>
      </trkpt>
      <trkpt lat="44.15278" lon="5.01708">
        <ele>456.18359375</ele>
        <time>2017-04-06T09:11:38Z</time>
      </trkpt>
      <trkpt lat="44.15281" lon="5.01722">
        <ele>456.6953125</ele>
        <time>2017-04-06T09:11:47Z</time>
      </trkpt>
      <trkpt lat="44.15284" lon="5.01734">
        <ele>457.25</ele>
        <time>2017-04-06T09:11:55Z</time>
      </trkpt>
      <trkpt lat="44.15285" lon="5.01748">
        <ele>456.1484375</ele>
        <time>2017-04-06T09:12:04Z</time>
      </trkpt>
      <trkpt lat="44.15286" lon="5.0176">
        <ele>456.21484375</ele>
        <time>2017-04-06T09:12:12Z</time>
      </trkpt>
      <trkpt lat="44.15288" lon="5.01775">
        <ele>457.03515625</ele>
        <time>2017-04-06T09:12:21Z</time>
      </trkpt>
      <trkpt lat="44.15292" lon="5.01787">
        <ele>458.12890625</ele>
        <time>2017-04-06T09:12:29Z</time>
      </trkpt>
      <trkpt lat="44.15295" lon="5.018">
        <ele>458.80078125</ele>
        <time>2017-04-06T09:12:38Z</time>
      </trkpt>
      <trkpt lat="44.15296" lon="5.01813">
        <ele>458.83984375</ele>
        <time>2017-04-06T09:12:47Z</time>
      </trkpt>
      <trkpt lat="44.15299" lon="5.01827">
        <ele>460.36328125</ele>
        <time>2017-04-06T09:12:56Z</time>
      </trkpt>
      <trkpt lat="44.15303" lon="5.0184">
        <ele>462.328125</ele>
        <time>2017-04-06T09:13:05Z</time>
      </trkpt>
      <trkpt lat="44.15306" lon="5.01856">
        <ele>463.84765625</ele>
        <time>2017-04-06T09:13:16Z</time>
      </trkpt>
      <trkpt lat="44.15307" lon="5.01871">
        <ele>464.86328125</ele>
        <time>2017-04-06T09:13:25Z</time>
      </trkpt>
      <trkpt lat="44.15306" lon="5.01888">
        <ele>464.796875</ele>
        <time>2017-04-06T09:13:34Z</time>
      </trkpt>
      <trkpt lat="44.15303" lon="5.01905">
        <ele>464.84765625</ele>
        <time>2017-04-06T09:13:44Z</time>
      </trkpt>
      <trkpt lat="44.15301" lon="5.0192">
        <ele>464.8203125</ele>
        <time>2017-04-06T09:13:53Z</time>
      </trkpt>
      <trkpt lat="44.15298" lon="5.01934">
        <ele>464.46484375</ele>
        <time>2017-04-06T09:14:04Z</time>
      </trkpt>
      <trkpt lat="44.15294" lon="5.01949">
        <ele>464.515625</ele>
        <time>2017-04-06T09:14:15Z</time>
      </trkpt>
      <trkpt lat="44.15291" lon="5.01958">
        <ele>464.84375</ele>
        <time>2017-04-06T09:14:31Z</time>
      </trkpt>
      <trkpt lat="44.15284" lon="5.0197">
        <ele>464.28515625</ele>
        <time>2017-04-06T09:14:41Z</time>
      </trkpt>
      <trkpt lat="44.15276" lon="5.01982">
        <ele>463.94140625</ele>
        <time>2017-04-06T09:14:52Z</time>
      </trkpt>
      <trkpt lat="44.15266" lon="5.01991">
        <ele>463.14453125</ele>
        <time>2017-04-06T09:15:01Z</time>
      </trkpt>
      <trkpt lat="44.15257" lon="5.01994">
        <ele>461.296875</ele>
        <time>2017-04-06T09:15:09Z</time>
      </trkpt>
      <trkpt lat="44.15247" lon="5.01994">
        <ele>458.53125</ele>
        <time>2017-04-06T09:15:19Z</time>
      </trkpt>
      <trkpt lat="44.15241" lon="5.01986">
        <ele>455.1328125</ele>
        <time>2017-04-06T09:17:20Z</time>
      </trkpt>
      <trkpt lat="44.15234" lon="5.0199">
        <ele>454.6484375</ele>
        <time>2017-04-06T09:17:43Z</time>
      </trkpt>
      <trkpt lat="44.1523" lon="5.01991">
        <ele>453.6484375</ele>
        <time>2017-04-06T09:19:44Z</time>
      </trkpt>
      <trkpt lat="44.1522" lon="5.0199">
        <ele>453.03125</ele>
        <time>2017-04-06T09:20:00Z</time>
      </trkpt>
      <trkpt lat="44.1521" lon="5.01983">
        <ele>452.0234375</ele>
        <time>2017-04-06T09:20:09Z</time>
      </trkpt>
      <trkpt lat="44.15203" lon="5.01969">
        <ele>448.70703125</ele>
        <time>2017-04-06T09:20:20Z</time>
      </trkpt>
      <trkpt lat="44.152" lon="5.01955">
        <ele>444.3046875</ele>
        <time>2017-04-06T09:20:29Z</time>
      </trkpt>
      <trkpt lat="44.15197" lon="5.01941">
        <ele>440.50390625</ele>
        <time>2017-04-06T09:20:38Z</time>
      </trkpt>
      <trkpt lat="44.15192" lon="5.01927">
        <ele>438.3828125</ele>
        <time>2017-04-06T09:20:48Z</time>
      </trkpt>
      <trkpt lat="44.15187" lon="5.01915">
        <ele>436.49609375</ele>
        <time>2017-04-06T09:20:57Z</time>
      </trkpt>
      <trkpt lat="44.1518" lon="5.01903">
        <ele>434.58203125</ele>
        <time>2017-04-06T09:21:08Z</time>
      </trkpt>
      <trkpt lat="44.15173" lon="5.01888">
        <ele>431.68359375</ele>
        <time>2017-04-06T09:21:17Z</time>
      </trkpt>
      <trkpt lat="44.15166" lon="5.01875">
        <ele>430.96484375</ele>
        <time>2017-04-06T09:21:24Z</time>
      </trkpt>
      <trkpt lat="44.15159" lon="5.0186">
        <ele>430.22265625</ele>
        <time>2017-04-06T09:21:32Z</time>
      </trkpt>
      <trkpt lat="44.15153" lon="5.01848">
        <ele>428.97265625</ele>
        <time>2017-04-06T09:21:38Z</time>
      </trkpt>
      <trkpt lat="44.15148" lon="5.01837">
        <ele>427.79296875</ele>
        <time>2017-04-06T09:21:45Z</time>
      </trkpt>
      <trkpt lat="44.15139" lon="5.01829">
        <ele>428.19140625</ele>
        <time>2017-04-06T09:21:54Z</time>
      </trkpt>
      <trkpt lat="44.15133" lon="5.01817">
        <ele>426.8828125</ele>
        <time>2017-04-06T09:22:02Z</time>
      </trkpt>
      <trkpt lat="44.15126" lon="5.01804">
        <ele>425.44921875</ele>
        <time>2017-04-06T09:22:11Z</time>
      </trkpt>
      <trkpt lat="44.15118" lon="5.01795">
        <ele>425.31640625</ele>
        <time>2017-04-06T09:22:19Z</time>
      </trkpt>
      <trkpt lat="44.15109" lon="5.01786">
        <ele>425.171875</ele>
        <time>2017-04-06T09:22:27Z</time>
      </trkpt>
      <trkpt lat="44.15102" lon="5.01778">
        <ele>424.55859375</ele>
        <time>2017-04-06T09:22:35Z</time>
      </trkpt>
      <trkpt lat="44.15096" lon="5.01778">
        <ele>426</ele>
        <time>2017-04-06T09:23:19Z</time>
      </trkpt>
      <trkpt lat="44.15085" lon="5.01771">
        <ele>426.65234375</ele>
        <time>2017-04-06T09:23:29Z</time>
      </trkpt>
      <trkpt lat="44.15076" lon="5.0176">
        <ele>425.015625</ele>
        <time>2017-04-06T09:23:37Z</time>
      </trkpt>
      <trkpt lat="44.15067" lon="5.0175">
        <ele>423.7890625</ele>
        <time>2017-04-06T09:23:46Z</time>
      </trkpt>
      <trkpt lat="44.15058" lon="5.0174">
        <ele>422.078125</ele>
        <time>2017-04-06T09:23:54Z</time>
      </trkpt>
      <trkpt lat="44.1505" lon="5.01731">
        <ele>420.70703125</ele>
        <time>2017-04-06T09:24:01Z</time>
      </trkpt>
      <trkpt lat="44.15041" lon="5.01721">
        <ele>419.24609375</ele>
        <time>2017-04-06T09:24:08Z</time>
      </trkpt>
      <trkpt lat="44.15032" lon="5.01714">
        <ele>417.92578125</ele>
        <time>2017-04-06T09:24:15Z</time>
      </trkpt>
      <trkpt lat="44.15024" lon="5.01704">
        <ele>416.75390625</ele>
        <time>2017-04-06T09:24:23Z</time>
      </trkpt>
      <trkpt lat="44.15015" lon="5.01694">
        <ele>415.2578125</ele>
        <time>2017-04-06T09:24:30Z</time>
      </trkpt>
      <trkpt lat="44.15008" lon="5.01689">
        <ele>415.19921875</ele>
        <time>2017-04-06T09:24:37Z</time>
      </trkpt>
      <trkpt lat="44.14999" lon="5.01681">
        <ele>414.1015625</ele>
        <time>2017-04-06T09:24:44Z</time>
      </trkpt>
      <trkpt lat="44.14991" lon="5.0167">
        <ele>411.68359375</ele>
        <time>2017-04-06T09:24:52Z</time>
      </trkpt>
      <trkpt lat="44.1498" lon="5.01663">
        <ele>411.04296875</ele>
        <time>2017-04-06T09:25:01Z</time>
      </trkpt>
      <trkpt lat="44.14971" lon="5.01656">
        <ele>409.5390625</ele>
        <time>2017-04-06T09:25:09Z</time>
      </trkpt>
      <trkpt lat="44.14961" lon="5.0165">
        <ele>408.7890625</ele>
        <time>2017-04-06T09:25:17Z</time>
      </trkpt>
      <trkpt lat="44.14951" lon="5.01647">
        <ele>408.97265625</ele>
        <time>2017-04-06T09:25:25Z</time>
      </trkpt>
      <trkpt lat="44.14942" lon="5.01645">
        <ele>409.37109375</ele>
        <time>2017-04-06T09:25:33Z</time>
      </trkpt>
      <trkpt lat="44.14931" lon="5.01642">
        <ele>408.5234375</ele>
        <time>2017-04-06T09:25:41Z</time>
      </trkpt>
      <trkpt lat="44.14921" lon="5.01637">
        <ele>407.43359375</ele>
        <time>2017-04-06T09:25:49Z</time>
      </trkpt>
      <trkpt lat="44.14912" lon="5.01633">
        <ele>406.51953125</ele>
        <time>2017-04-06T09:25:57Z</time>
      </trkpt>
      <trkpt lat="44.14902" lon="5.01629">
        <ele>405.32421875</ele>
        <time>2017-04-06T09:26:05Z</time>
      </trkpt>
      <trkpt lat="44.14895" lon="5.0162">
        <ele>402.33203125</ele>
        <time>2017-04-06T09:26:13Z</time>
      </trkpt>
      <trkpt lat="44.14891" lon="5.01607">
        <ele>398.4921875</ele>
        <time>2017-04-06T09:26:21Z</time>
      </trkpt>
      <trkpt lat="44.14888" lon="5.01593">
        <ele>394.53515625</ele>
        <time>2017-04-06T09:26:32Z</time>
      </trkpt>
      <trkpt lat="44.14883" lon="5.0158">
        <ele>391.88671875</ele>
        <time>2017-04-06T09:26:41Z</time>
      </trkpt>
      <trkpt lat="44.14875" lon="5.01568">
        <ele>390.59765625</ele>
        <time>2017-04-06T09:26:51Z</time>
      </trkpt>
      <trkpt lat="44.14866" lon="5.01559">
        <ele>390.0546875</ele>
        <time>2017-04-06T09:27:00Z</time>
      </trkpt>
      <trkpt lat="44.14857" lon="5.0155">
        <ele>389.48046875</ele>
        <time>2017-04-06T09:27:09Z</time>
      </trkpt>
      <trkpt lat="44.14847" lon="5.01541">
        <ele>389.3984375</ele>
        <time>2017-04-06T09:27:18Z</time>
      </trkpt>
      <trkpt lat="44.14836" lon="5.01539">
        <ele>391.015625</ele>
        <time>2017-04-06T09:27:27Z</time>
      </trkpt>
      <trkpt lat="44.14825" lon="5.01538">
        <ele>392.375</ele>
        <time>2017-04-06T09:27:36Z</time>
      </trkpt>
      <trkpt lat="44.14815" lon="5.01537">
        <ele>393.81640625</ele>
        <time>2017-04-06T09:27:45Z</time>
      </trkpt>
      <trkpt lat="44.14805" lon="5.01538">
        <ele>395.046875</ele>
        <time>2017-04-06T09:27:54Z</time>
      </trkpt>
      <trkpt lat="44.14795" lon="5.0154">
        <ele>395.7734375</ele>
        <time>2017-04-06T09:28:02Z</time>
      </trkpt>
      <trkpt lat="44.14783" lon="5.01541">
        <ele>396.3046875</ele>
        <time>2017-04-06T09:28:11Z</time>
      </trkpt>
      <trkpt lat="44.14774" lon="5.01543">
        <ele>396.34765625</ele>
        <time>2017-04-06T09:28:20Z</time>
      </trkpt>
      <trkpt lat="44.14764" lon="5.01546">
        <ele>396.578125</ele>
        <time>2017-04-06T09:28:29Z</time>
      </trkpt>
      <trkpt lat="44.14752" lon="5.01548">
        <ele>395.66796875</ele>
        <time>2017-04-06T09:28:40Z</time>
      </trkpt>
      <trkpt lat="44.14744" lon="5.01548">
        <ele>393.8046875</ele>
        <time>2017-04-06T09:29:06Z</time>
      </trkpt>
      <trkpt lat="44.14732" lon="5.01552">
        <ele>392.38671875</ele>
        <time>2017-04-06T09:29:18Z</time>
      </trkpt>
      <trkpt lat="44.14721" lon="5.01558">
        <ele>390.9453125</ele>
        <time>2017-04-06T09:29:29Z</time>
      </trkpt>
      <trkpt lat="44.1472" lon="5.01545">
        <ele>387.82421875</ele>
        <time>2017-04-06T09:29:43Z</time>
      </trkpt>
      <trkpt lat="44.1472" lon="5.0153">
        <ele>384.4375</ele>
        <time>2017-04-06T09:29:54Z</time>
      </trkpt>
      <trkpt lat="44.14709" lon="5.01518">
        <ele>381.26171875</ele>
        <time>2017-04-06T09:30:12Z</time>
      </trkpt>
      <trkpt lat="44.14704" lon="5.01497">
        <ele>378.80078125</ele>
        <time>2017-04-06T09:30:41Z</time>
      </trkpt>
      <trkpt lat="44.147" lon="5.01478">
        <ele>378.01953125</ele>
        <time>2017-04-06T09:32:18Z</time>
      </trkpt>
      <trkpt lat="44.14697" lon="5.01473">
        <ele>378.24609375</ele>
      </trkpt>
      <trkpt lat="44.14695" lon="5.01471">
        <ele>378.30859375</ele>
      </trkpt>
      <trkpt lat="44.14694" lon="5.0147">
        <ele>378.375</ele>
      </trkpt>
      <trkpt lat="44.14692" lon="5.01468">
        <ele>378.41796875</ele>
      </trkpt>
      <trkpt lat="44.14689" lon="5.01466">
        <ele>378.64453125</ele>
      </trkpt>
      <trkpt lat="44.14687" lon="5.01466">
        <ele>378.953125</ele>
      </trkpt>
      <trkpt lat="44.14686" lon="5.01467">
        <ele>379.16015625</ele>
      </trkpt>
      <trkpt lat="44.14697" lon="5.01474">
        <ele>378.26171875</ele>
        <time>2017-04-06T09:33:34Z</time>
      </trkpt>
      <trkpt lat="44.14698" lon="5.01475">
        <ele>378.18359375</ele>
        <time>2017-04-06T09:35:04Z</time>
      </trkpt>
      <trkpt lat="44.14703" lon="5.01481">
        <ele>377.8203125</ele>
        <time>2017-04-06T09:38:18Z</time>
      </trkpt>
      <trkpt lat="44.14704" lon="5.01495">
        <ele>378.6484375</ele>
        <time>2017-04-06T09:39:11Z</time>
      </trkpt>
      <trkpt lat="44.14708" lon="5.01512">
        <ele>380.41015625</ele>
        <time>2017-04-06T09:39:46Z</time>
      </trkpt>
      <trkpt lat="44.14718" lon="5.0153">
        <ele>384.09765625</ele>
        <time>2017-04-06T09:40:08Z</time>
      </trkpt>
      <trkpt lat="44.14716" lon="5.01548">
        <ele>387.8125</ele>
        <time>2017-04-06T09:40:26Z</time>
      </trkpt>
      <trkpt lat="44.14717" lon="5.01556">
        <ele>389.8125</ele>
        <time>2017-04-06T09:40:57Z</time>
      </trkpt>
      <trkpt lat="44.14719" lon="5.01566">
        <ele>391.88671875</ele>
        <time>2017-04-06T09:41:24Z</time>
      </trkpt>
      <trkpt lat="44.14714" lon="5.01584">
        <ele>393.609375</ele>
        <time>2017-04-06T09:41:36Z</time>
      </trkpt>
      <trkpt lat="44.14711" lon="5.01599">
        <ele>394.65625</ele>
        <time>2017-04-06T09:41:47Z</time>
      </trkpt>
      <trkpt lat="44.14707" lon="5.01614">
        <ele>394.86328125</ele>
        <time>2017-04-06T09:41:58Z</time>
      </trkpt>
      <trkpt lat="44.14703" lon="5.01628">
        <ele>394.4453125</ele>
        <time>2017-04-06T09:42:08Z</time>
      </trkpt>
      <trkpt lat="44.14699" lon="5.01642">
        <ele>394.1640625</ele>
        <time>2017-04-06T09:42:18Z</time>
      </trkpt>
      <trkpt lat="44.14696" lon="5.01656">
        <ele>393.57421875</ele>
        <time>2017-04-06T09:42:28Z</time>
      </trkpt>
      <trkpt lat="44.14693" lon="5.01668">
        <ele>393.125</ele>
        <time>2017-04-06T09:42:36Z</time>
      </trkpt>
      <trkpt lat="44.14692" lon="5.01682">
        <ele>392.359375</ele>
        <time>2017-04-06T09:42:45Z</time>
      </trkpt>
      <trkpt lat="44.1469" lon="5.01694">
        <ele>391.62890625</ele>
        <time>2017-04-06T09:42:53Z</time>
      </trkpt>
      <trkpt lat="44.1469" lon="5.01708">
        <ele>391.5390625</ele>
        <time>2017-04-06T09:43:02Z</time>
      </trkpt>
      <trkpt lat="44.14691" lon="5.01722">
        <ele>391.7578125</ele>
        <time>2017-04-06T09:43:13Z</time>
      </trkpt>
      <trkpt lat="44.14689" lon="5.01741">
        <ele>392.09375</ele>
        <time>2017-04-06T09:43:23Z</time>
      </trkpt>
      <trkpt lat="44.14689" lon="5.01759">
        <ele>393.45703125</ele>
        <time>2017-04-06T09:43:34Z</time>
      </trkpt>
      <trkpt lat="44.14686" lon="5.01777">
        <ele>394.23046875</ele>
        <time>2017-04-06T09:43:46Z</time>
      </trkpt>
      <trkpt lat="44.1468" lon="5.01793">
        <ele>394.5703125</ele>
        <time>2017-04-06T09:43:56Z</time>
      </trkpt>
      <trkpt lat="44.14669" lon="5.01804">
        <ele>393.0859375</ele>
        <time>2017-04-06T09:44:09Z</time>
      </trkpt>
      <trkpt lat="44.14659" lon="5.01813">
        <ele>392.75390625</ele>
        <time>2017-04-06T09:44:18Z</time>
      </trkpt>
      <trkpt lat="44.14648" lon="5.01818">
        <ele>391.3203125</ele>
        <time>2017-04-06T09:44:27Z</time>
      </trkpt>
      <trkpt lat="44.14638" lon="5.01823">
        <ele>390.62109375</ele>
        <time>2017-04-06T09:44:37Z</time>
      </trkpt>
      <trkpt lat="44.14629" lon="5.01827">
        <ele>389.9765625</ele>
        <time>2017-04-06T09:44:46Z</time>
      </trkpt>
      <trkpt lat="44.14619" lon="5.01833">
        <ele>389.50390625</ele>
        <time>2017-04-06T09:44:56Z</time>
      </trkpt>
      <trkpt lat="44.14609" lon="5.01837">
        <ele>388.53515625</ele>
        <time>2017-04-06T09:45:05Z</time>
      </trkpt>
      <trkpt lat="44.14599" lon="5.0184">
        <ele>387.03125</ele>
        <time>2017-04-06T09:45:14Z</time>
      </trkpt>
      <trkpt lat="44.14589" lon="5.01843">
        <ele>385.31640625</ele>
        <time>2017-04-06T09:45:23Z</time>
      </trkpt>
      <trkpt lat="44.1458" lon="5.01847">
        <ele>384.140625</ele>
        <time>2017-04-06T09:45:32Z</time>
      </trkpt>
      <trkpt lat="44.14571" lon="5.01855">
        <ele>383.76953125</ele>
        <time>2017-04-06T09:45:42Z</time>
      </trkpt>
      <trkpt lat="44.14568" lon="5.01872">
        <ele>383.3203125</ele>
        <time>2017-04-06T09:45:52Z</time>
      </trkpt>
      <trkpt lat="44.14573" lon="5.01885">
        <ele>384.2890625</ele>
        <time>2017-04-06T09:46:01Z</time>
      </trkpt>
      <trkpt lat="44.14579" lon="5.01898">
        <ele>385.79296875</ele>
        <time>2017-04-06T09:46:10Z</time>
      </trkpt>
      <trkpt lat="44.14587" lon="5.01909">
        <ele>387.80859375</ele>
        <time>2017-04-06T09:46:19Z</time>
      </trkpt>
      <trkpt lat="44.14591" lon="5.0192">
        <ele>389.12890625</ele>
        <time>2017-04-06T09:46:28Z</time>
      </trkpt>
      <trkpt lat="44.14595" lon="5.01934">
        <ele>389.86328125</ele>
        <time>2017-04-06T09:46:38Z</time>
      </trkpt>
      <trkpt lat="44.14597" lon="5.01949">
        <ele>389.52734375</ele>
        <time>2017-04-06T09:46:47Z</time>
      </trkpt>
      <trkpt lat="44.14597" lon="5.01962">
        <ele>389.15625</ele>
        <time>2017-04-06T09:46:56Z</time>
      </trkpt>
      <trkpt lat="44.14598" lon="5.01977">
        <ele>388.66015625</ele>
        <time>2017-04-06T09:47:05Z</time>
      </trkpt>
      <trkpt lat="44.14599" lon="5.01991">
        <ele>388.19921875</ele>
        <time>2017-04-06T09:47:14Z</time>
      </trkpt>
      <trkpt lat="44.146" lon="5.02005">
        <ele>388.203125</ele>
        <time>2017-04-06T09:47:22Z</time>
      </trkpt>
      <trkpt lat="44.14601" lon="5.0202">
        <ele>388.44140625</ele>
        <time>2017-04-06T09:47:32Z</time>
      </trkpt>
      <trkpt lat="44.14601" lon="5.02034">
        <ele>388.40625</ele>
        <time>2017-04-06T09:47:41Z</time>
      </trkpt>
      <trkpt lat="44.14604" lon="5.0205">
        <ele>389.44140625</ele>
        <time>2017-04-06T09:47:51Z</time>
      </trkpt>
      <trkpt lat="44.14608" lon="5.02065">
        <ele>390.58203125</ele>
        <time>2017-04-06T09:48:01Z</time>
      </trkpt>
      <trkpt lat="44.14612" lon="5.02081">
        <ele>390.98046875</ele>
        <time>2017-04-06T09:48:12Z</time>
      </trkpt>
      <trkpt lat="44.14615" lon="5.02097">
        <ele>392.79296875</ele>
        <time>2017-04-06T09:48:22Z</time>
      </trkpt>
      <trkpt lat="44.14613" lon="5.02114">
        <ele>393.56640625</ele>
        <time>2017-04-06T09:48:33Z</time>
      </trkpt>
      <trkpt lat="44.14607" lon="5.02128">
        <ele>393.5078125</ele>
        <time>2017-04-06T09:48:44Z</time>
      </trkpt>
      <trkpt lat="44.14598" lon="5.02139">
        <ele>392.69140625</ele>
        <time>2017-04-06T09:48:54Z</time>
      </trkpt>
      <trkpt lat="44.14587" lon="5.02144">
        <ele>390.59375</ele>
        <time>2017-04-06T09:49:04Z</time>
      </trkpt>
      <trkpt lat="44.14577" lon="5.02144">
        <ele>388.37109375</ele>
        <time>2017-04-06T09:49:13Z</time>
      </trkpt>
      <trkpt lat="44.14568" lon="5.02142">
        <ele>386.0625</ele>
        <time>2017-04-06T09:49:21Z</time>
      </trkpt>
      <trkpt lat="44.14559" lon="5.02142">
        <ele>384.24609375</ele>
        <time>2017-04-06T09:49:29Z</time>
      </trkpt>
      <trkpt lat="44.1455" lon="5.02144">
        <ele>383.11328125</ele>
        <time>2017-04-06T09:49:38Z</time>
      </trkpt>
      <trkpt lat="44.14541" lon="5.0215">
        <ele>382.26171875</ele>
        <time>2017-04-06T09:49:47Z</time>
      </trkpt>
      <trkpt lat="44.14534" lon="5.02161">
        <ele>381.9140625</ele>
        <time>2017-04-06T09:49:56Z</time>
      </trkpt>
      <trkpt lat="44.14529" lon="5.02174">
        <ele>381.54296875</ele>
        <time>2017-04-06T09:50:05Z</time>
      </trkpt>
      <trkpt lat="44.14526" lon="5.02188">
        <ele>381.24609375</ele>
        <time>2017-04-06T09:50:16Z</time>
      </trkpt>
      <trkpt lat="44.14523" lon="5.02203">
        <ele>380.4609375</ele>
        <time>2017-04-06T09:50:26Z</time>
      </trkpt>
      <trkpt lat="44.1452" lon="5.02218">
        <ele>379.6015625</ele>
        <time>2017-04-06T09:50:35Z</time>
      </trkpt>
      <trkpt lat="44.14519" lon="5.02231">
        <ele>378.83984375</ele>
        <time>2017-04-06T09:50:43Z</time>
      </trkpt>
      <trkpt lat="44.14519" lon="5.02247">
        <ele>378.34765625</ele>
        <time>2017-04-06T09:50:53Z</time>
      </trkpt>
      <trkpt lat="44.1452" lon="5.02262">
        <ele>377.921875</ele>
        <time>2017-04-06T09:51:02Z</time>
      </trkpt>
      <trkpt lat="44.14521" lon="5.02277">
        <ele>377.609375</ele>
        <time>2017-04-06T09:51:11Z</time>
      </trkpt>
      <trkpt lat="44.14521" lon="5.02292">
        <ele>378.50390625</ele>
        <time>2017-04-06T09:51:20Z</time>
      </trkpt>
      <trkpt lat="44.1452" lon="5.02308">
        <ele>379.046875</ele>
        <time>2017-04-06T09:51:30Z</time>
      </trkpt>
      <trkpt lat="44.14516" lon="5.02322">
        <ele>378.37890625</ele>
        <time>2017-04-06T09:51:40Z</time>
      </trkpt>
      <trkpt lat="44.14507" lon="5.02323">
        <ele>376.2734375</ele>
        <time>2017-04-06T09:51:50Z</time>
      </trkpt>
      <trkpt lat="44.145" lon="5.02314">
        <ele>374.39453125</ele>
        <time>2017-04-06T09:51:59Z</time>
      </trkpt>
      <trkpt lat="44.14497" lon="5.023">
        <ele>372.97265625</ele>
        <time>2017-04-06T09:52:10Z</time>
      </trkpt>
      <trkpt lat="44.14493" lon="5.02289">
        <ele>371.34375</ele>
        <time>2017-04-06T09:52:18Z</time>
      </trkpt>
      <trkpt lat="44.14486" lon="5.0228">
        <ele>369.0859375</ele>
        <time>2017-04-06T09:52:28Z</time>
      </trkpt>
      <trkpt lat="44.14478" lon="5.02271">
        <ele>367.4453125</ele>
        <time>2017-04-06T09:52:37Z</time>
      </trkpt>
      <trkpt lat="44.14469" lon="5.02265">
        <ele>366.140625</ele>
        <time>2017-04-06T09:52:46Z</time>
      </trkpt>
      <trkpt lat="44.14459" lon="5.02265">
        <ele>364.5</ele>
        <time>2017-04-06T09:52:55Z</time>
      </trkpt>
      <trkpt lat="44.14448" lon="5.02269">
        <ele>362.89453125</ele>
        <time>2017-04-06T09:53:05Z</time>
      </trkpt>
      <trkpt lat="44.14439" lon="5.02273">
        <ele>361.8125</ele>
        <time>2017-04-06T09:53:13Z</time>
      </trkpt>
      <trkpt lat="44.14429" lon="5.02278">
        <ele>360.875</ele>
        <time>2017-04-06T09:53:22Z</time>
      </trkpt>
      <trkpt lat="44.14419" lon="5.02281">
        <ele>359.95703125</ele>
        <time>2017-04-06T09:53:31Z</time>
      </trkpt>
      <trkpt lat="44.1441" lon="5.02283">
        <ele>358.734375</ele>
        <time>2017-04-06T09:53:39Z</time>
      </trkpt>
      <trkpt lat="44.144" lon="5.02287">
        <ele>357.56640625</ele>
        <time>2017-04-06T09:53:48Z</time>
      </trkpt>
      <trkpt lat="44.14389" lon="5.0229">
        <ele>356.43359375</ele>
        <time>2017-04-06T09:53:57Z</time>
      </trkpt>
      <trkpt lat="44.1438" lon="5.02292">
        <ele>355.59765625</ele>
        <time>2017-04-06T09:54:05Z</time>
      </trkpt>
      <trkpt lat="44.1437" lon="5.02293">
        <ele>354.5546875</ele>
        <time>2017-04-06T09:54:14Z</time>
      </trkpt>
      <trkpt lat="44.14361" lon="5.0229">
        <ele>353.4453125</ele>
        <time>2017-04-06T09:54:23Z</time>
      </trkpt>
      <trkpt lat="44.14352" lon="5.02284">
        <ele>352.359375</ele>
        <time>2017-04-06T09:54:32Z</time>
      </trkpt>
      <trkpt lat="44.14354" lon="5.02271">
        <ele>351.8359375</ele>
        <time>2017-04-06T09:54:42Z</time>
      </trkpt>
      <trkpt lat="44.14359" lon="5.02256">
        <ele>351.54296875</ele>
        <time>2017-04-06T09:54:52Z</time>
      </trkpt>
      <trkpt lat="44.14362" lon="5.02244">
        <ele>351.3515625</ele>
        <time>2017-04-06T09:55:00Z</time>
      </trkpt>
      <trkpt lat="44.14361" lon="5.0223">
        <ele>350.6171875</ele>
        <time>2017-04-06T09:55:08Z</time>
      </trkpt>
      <trkpt lat="44.14355" lon="5.02217">
        <ele>349.39453125</ele>
        <time>2017-04-06T09:55:18Z</time>
      </trkpt>
      <trkpt lat="44.14346" lon="5.02208">
        <ele>348.16015625</ele>
        <time>2017-04-06T09:55:28Z</time>
      </trkpt>
      <trkpt lat="44.14337" lon="5.02199">
        <ele>346.90625</ele>
        <time>2017-04-06T09:55:37Z</time>
      </trkpt>
      <trkpt lat="44.14328" lon="5.02189">
        <ele>345.90625</ele>
        <time>2017-04-06T09:55:47Z</time>
      </trkpt>
      <trkpt lat="44.14319" lon="5.02181">
        <ele>344.8828125</ele>
        <time>2017-04-06T09:55:58Z</time>
      </trkpt>
      <trkpt lat="44.1431" lon="5.02173">
        <ele>343.92578125</ele>
        <time>2017-04-06T09:56:08Z</time>
      </trkpt>
      <trkpt lat="44.143" lon="5.02163">
        <ele>342.89453125</ele>
        <time>2017-04-06T09:56:18Z</time>
      </trkpt>
      <trkpt lat="44.14292" lon="5.02151">
        <ele>341.4375</ele>
        <time>2017-04-06T09:56:28Z</time>
      </trkpt>
      <trkpt lat="44.14284" lon="5.02143">
        <ele>339.60546875</ele>
        <time>2017-04-06T09:56:36Z</time>
      </trkpt>
      <trkpt lat="44.14275" lon="5.02132">
        <ele>338.41015625</ele>
        <time>2017-04-06T09:56:45Z</time>
      </trkpt>
      <trkpt lat="44.14265" lon="5.02123">
        <ele>337.49609375</ele>
        <time>2017-04-06T09:56:55Z</time>
      </trkpt>
      <trkpt lat="44.14257" lon="5.02114">
        <ele>336.32421875</ele>
        <time>2017-04-06T09:57:05Z</time>
      </trkpt>
      <trkpt lat="44.14249" lon="5.02103">
        <ele>335.640625</ele>
        <time>2017-04-06T09:57:15Z</time>
      </trkpt>
      <trkpt lat="44.14241" lon="5.02091">
        <ele>334.86328125</ele>
        <time>2017-04-06T09:57:24Z</time>
      </trkpt>
      <trkpt lat="44.14233" lon="5.0208">
        <ele>333.68359375</ele>
        <time>2017-04-06T09:57:34Z</time>
      </trkpt>
      <trkpt lat="44.14228" lon="5.0207">
        <ele>332.60546875</ele>
        <time>2017-04-06T09:57:42Z</time>
      </trkpt>
      <trkpt lat="44.14222" lon="5.02058">
        <ele>331.59765625</ele>
        <time>2017-04-06T09:57:49Z</time>
      </trkpt>
      <trkpt lat="44.14216" lon="5.02046">
        <ele>330.7578125</ele>
        <time>2017-04-06T09:57:58Z</time>
      </trkpt>
      <trkpt lat="44.14209" lon="5.02035">
        <ele>329.85546875</ele>
        <time>2017-04-06T09:58:07Z</time>
      </trkpt>
      <trkpt lat="44.14203" lon="5.02023">
        <ele>329.16796875</ele>
        <time>2017-04-06T09:58:15Z</time>
      </trkpt>
      <trkpt lat="44.14195" lon="5.02014">
        <ele>327.91796875</ele>
        <time>2017-04-06T09:58:24Z</time>
      </trkpt>
      <trkpt lat="44.14186" lon="5.02007">
        <ele>326.1796875</ele>
        <time>2017-04-06T09:58:32Z</time>
      </trkpt>
      <trkpt lat="44.14177" lon="5.02002">
        <ele>324.38671875</ele>
        <time>2017-04-06T09:58:40Z</time>
      </trkpt>
      <trkpt lat="44.14168" lon="5.02">
        <ele>322.3046875</ele>
        <time>2017-04-06T09:58:48Z</time>
      </trkpt>
      <trkpt lat="44.1416" lon="5.01997">
        <ele>320.7734375</ele>
        <time>2017-04-06T09:58:56Z</time>
      </trkpt>
      <trkpt lat="44.1415" lon="5.01994">
        <ele>319.015625</ele>
        <time>2017-04-06T09:59:04Z</time>
      </trkpt>
      <trkpt lat="44.1414" lon="5.01994">
        <ele>317.28125</ele>
        <time>2017-04-06T09:59:12Z</time>
      </trkpt>
      <trkpt lat="44.1413" lon="5.01996">
        <ele>315.51171875</ele>
        <time>2017-04-06T09:59:21Z</time>
      </trkpt>
      <trkpt lat="44.1412" lon="5.01998">
        <ele>313.828125</ele>
        <time>2017-04-06T09:59:30Z</time>
      </trkpt>
      <trkpt lat="44.1411" lon="5.01998">
        <ele>312.27734375</ele>
        <time>2017-04-06T09:59:39Z</time>
      </trkpt>
      <trkpt lat="44.141" lon="5.01997">
        <ele>311.0625</ele>
        <time>2017-04-06T09:59:47Z</time>
      </trkpt>
      <trkpt lat="44.14089" lon="5.01993">
        <ele>310.0546875</ele>
        <time>2017-04-06T09:59:56Z</time>
      </trkpt>
      <trkpt lat="44.14081" lon="5.01987">
        <ele>309.484375</ele>
        <time>2017-04-06T10:00:04Z</time>
      </trkpt>
      <trkpt lat="44.14072" lon="5.0198">
        <ele>308.82421875</ele>
        <time>2017-04-06T10:00:12Z</time>
      </trkpt>
      <trkpt lat="44.14062" lon="5.01976">
        <ele>307.53125</ele>
        <time>2017-04-06T10:00:21Z</time>
      </trkpt>
      <trkpt lat="44.14051" lon="5.01974">
        <ele>306.35546875</ele>
        <time>2017-04-06T10:00:30Z</time>
      </trkpt>
      <trkpt lat="44.14042" lon="5.01973">
        <ele>305.1875</ele>
        <time>2017-04-06T10:00:38Z</time>
      </trkpt>
      <trkpt lat="44.14032" lon="5.01971">
        <ele>304</ele>
        <time>2017-04-06T10:00:47Z</time>
      </trkpt>
      <trkpt lat="44.14021" lon="5.01968">
        <ele>303.55078125</ele>
        <time>2017-04-06T10:00:56Z</time>
      </trkpt>
      <trkpt lat="44.14011" lon="5.01962">
        <ele>303.2109375</ele>
        <time>2017-04-06T10:01:05Z</time>
      </trkpt>
      <trkpt lat="44.14002" lon="5.01955">
        <ele>302.99609375</ele>
        <time>2017-04-06T10:01:15Z</time>
      </trkpt>
      <trkpt lat="44.13993" lon="5.01945">
        <ele>303.12890625</ele>
        <time>2017-04-06T10:01:25Z</time>
      </trkpt>
      <trkpt lat="44.13984" lon="5.01939">
        <ele>302.390625</ele>
        <time>2017-04-06T10:01:34Z</time>
      </trkpt>
      <trkpt lat="44.13975" lon="5.01934">
        <ele>301.43359375</ele>
        <time>2017-04-06T10:01:43Z</time>
      </trkpt>
      <trkpt lat="44.13965" lon="5.0193">
        <ele>300.11328125</ele>
        <time>2017-04-06T10:01:53Z</time>
      </trkpt>
      <trkpt lat="44.13954" lon="5.01927">
        <ele>298.5390625</ele>
        <time>2017-04-06T10:02:03Z</time>
      </trkpt>
      <trkpt lat="44.13944" lon="5.01927">
        <ele>297.09375</ele>
        <time>2017-04-06T10:02:11Z</time>
      </trkpt>
      <trkpt lat="44.13934" lon="5.01927">
        <ele>295.6484375</ele>
        <time>2017-04-06T10:02:20Z</time>
      </trkpt>
      <trkpt lat="44.13923" lon="5.01928">
        <ele>293.9140625</ele>
        <time>2017-04-06T10:02:29Z</time>
      </trkpt>
      <trkpt lat="44.13913" lon="5.0193">
        <ele>292.609375</ele>
        <time>2017-04-06T10:02:37Z</time>
      </trkpt>
      <trkpt lat="44.13903" lon="5.01932">
        <ele>291.33984375</ele>
        <time>2017-04-06T10:02:46Z</time>
      </trkpt>
      <trkpt lat="44.13893" lon="5.01934">
        <ele>289.95703125</ele>
        <time>2017-04-06T10:02:58Z</time>
      </trkpt>
      <trkpt lat="44.13892" lon="5.01939">
        <ele>289.3359375</ele>
        <time>2017-04-06T10:06:42Z</time>
      </trkpt>
      <trkpt lat="44.13902" lon="5.01943">
        <ele>289.94921875</ele>
        <time>2017-04-06T10:06:56Z</time>
      </trkpt>
      <trkpt lat="44.13914" lon="5.01945">
        <ele>291.15625</ele>
        <time>2017-04-06T10:07:10Z</time>
      </trkpt>
      <trkpt lat="44.13926" lon="5.01945">
        <ele>292.49609375</ele>
        <time>2017-04-06T10:07:23Z</time>
      </trkpt>
      <trkpt lat="44.13938" lon="5.01947">
        <ele>294.10546875</ele>
        <time>2017-04-06T10:07:33Z</time>
      </trkpt>
      <trkpt lat="44.1395" lon="5.01953">
        <ele>295.078125</ele>
        <time>2017-04-06T10:07:44Z</time>
      </trkpt>
      <trkpt lat="44.1396" lon="5.01963">
        <ele>295.5625</ele>
        <time>2017-04-06T10:07:55Z</time>
      </trkpt>
      <trkpt lat="44.13967" lon="5.01971">
        <ele>295.66796875</ele>
        <time>2017-04-06T10:08:04Z</time>
      </trkpt>
      <trkpt lat="44.13973" lon="5.01983">
        <ele>295.18359375</ele>
        <time>2017-04-06T10:08:13Z</time>
      </trkpt>
      <trkpt lat="44.13981" lon="5.01995">
        <ele>294.96875</ele>
        <time>2017-04-06T10:08:24Z</time>
      </trkpt>
      <trkpt lat="44.13989" lon="5.02007">
        <ele>295.671875</ele>
        <time>2017-04-06T10:08:35Z</time>
      </trkpt>
      <trkpt lat="44.13998" lon="5.02019">
        <ele>297.109375</ele>
        <time>2017-04-06T10:08:46Z</time>
      </trkpt>
      <trkpt lat="44.1401" lon="5.02024">
        <ele>298.41796875</ele>
        <time>2017-04-06T10:08:58Z</time>
      </trkpt>
      <trkpt lat="44.14022" lon="5.02028">
        <ele>299.9140625</ele>
        <time>2017-04-06T10:09:10Z</time>
      </trkpt>
      <trkpt lat="44.14033" lon="5.02033">
        <ele>301.63671875</ele>
        <time>2017-04-06T10:09:21Z</time>
      </trkpt>
      <trkpt lat="44.14037" lon="5.02046">
        <ele>303.61328125</ele>
        <time>2017-04-06T10:09:32Z</time>
      </trkpt>
      <trkpt lat="44.14031" lon="5.02062">
        <ele>304.7578125</ele>
        <time>2017-04-06T10:09:42Z</time>
      </trkpt>
      <trkpt lat="44.1402" lon="5.0207">
        <ele>304.77734375</ele>
        <time>2017-04-06T10:09:52Z</time>
      </trkpt>
      <trkpt lat="44.14009" lon="5.02073">
        <ele>303.98828125</ele>
        <time>2017-04-06T10:10:02Z</time>
      </trkpt>
      <trkpt lat="44.13998" lon="5.02073">
        <ele>303.140625</ele>
        <time>2017-04-06T10:10:11Z</time>
      </trkpt>
      <trkpt lat="44.13989" lon="5.02068">
        <ele>301.6328125</ele>
        <time>2017-04-06T10:10:20Z</time>
      </trkpt>
      <trkpt lat="44.13979" lon="5.02058">
        <ele>299.515625</ele>
        <time>2017-04-06T10:10:31Z</time>
      </trkpt>
      <trkpt lat="44.1397" lon="5.0205">
        <ele>298.15234375</ele>
        <time>2017-04-06T10:10:41Z</time>
      </trkpt>
      <trkpt lat="44.13961" lon="5.02043">
        <ele>296.88671875</ele>
        <time>2017-04-06T10:10:50Z</time>
      </trkpt>
      <trkpt lat="44.13952" lon="5.02039">
        <ele>295.8125</ele>
        <time>2017-04-06T10:10:59Z</time>
      </trkpt>
      <trkpt lat="44.13942" lon="5.02042">
        <ele>295.73828125</ele>
        <time>2017-04-06T10:11:08Z</time>
      </trkpt>
      <trkpt lat="44.13933" lon="5.02047">
        <ele>295.8828125</ele>
        <time>2017-04-06T10:11:16Z</time>
      </trkpt>
      <trkpt lat="44.13924" lon="5.02053">
        <ele>295.96875</ele>
        <time>2017-04-06T10:11:25Z</time>
      </trkpt>
      <trkpt lat="44.13916" lon="5.02061">
        <ele>296.265625</ele>
        <time>2017-04-06T10:11:34Z</time>
      </trkpt>
      <trkpt lat="44.13909" lon="5.02071">
        <ele>296.7421875</ele>
        <time>2017-04-06T10:11:43Z</time>
      </trkpt>
      <trkpt lat="44.13903" lon="5.02082">
        <ele>297.54296875</ele>
        <time>2017-04-06T10:11:53Z</time>
      </trkpt>
      <trkpt lat="44.13897" lon="5.02095">
        <ele>298.15625</ele>
        <time>2017-04-06T10:12:04Z</time>
      </trkpt>
      <trkpt lat="44.13892" lon="5.0211">
        <ele>298.7578125</ele>
        <time>2017-04-06T10:12:14Z</time>
      </trkpt>
      <trkpt lat="44.13887" lon="5.02124">
        <ele>299.23046875</ele>
        <time>2017-04-06T10:12:22Z</time>
      </trkpt>
      <trkpt lat="44.13884" lon="5.02137">
        <ele>299.765625</ele>
        <time>2017-04-06T10:12:32Z</time>
      </trkpt>
      <trkpt lat="44.13881" lon="5.0215">
        <ele>299.8671875</ele>
        <time>2017-04-06T10:12:42Z</time>
      </trkpt>
      <trkpt lat="44.13878" lon="5.02164">
        <ele>299.6640625</ele>
        <time>2017-04-06T10:12:52Z</time>
      </trkpt>
      <trkpt lat="44.13871" lon="5.02174">
        <ele>298.72265625</ele>
        <time>2017-04-06T10:13:05Z</time>
      </trkpt>
      <trkpt lat="44.13862" lon="5.02178">
        <ele>297.45703125</ele>
        <time>2017-04-06T10:13:17Z</time>
      </trkpt>
      <trkpt lat="44.13853" lon="5.02181">
        <ele>296.28515625</ele>
        <time>2017-04-06T10:13:26Z</time>
      </trkpt>
      <trkpt lat="44.13844" lon="5.02183">
        <ele>295.0625</ele>
        <time>2017-04-06T10:13:36Z</time>
      </trkpt>
      <trkpt lat="44.13835" lon="5.02186">
        <ele>293.82421875</ele>
        <time>2017-04-06T10:13:46Z</time>
      </trkpt>
      <trkpt lat="44.13825" lon="5.02189">
        <ele>292.69140625</ele>
        <time>2017-04-06T10:13:55Z</time>
      </trkpt>
      <trkpt lat="44.13817" lon="5.02192">
        <ele>291.65625</ele>
        <time>2017-04-06T10:14:04Z</time>
      </trkpt>
      <trkpt lat="44.13808" lon="5.02195">
        <ele>290.6875</ele>
        <time>2017-04-06T10:14:13Z</time>
      </trkpt>
      <trkpt lat="44.13799" lon="5.02197">
        <ele>289.65234375</ele>
        <time>2017-04-06T10:14:22Z</time>
      </trkpt>
      <trkpt lat="44.13791" lon="5.02201">
        <ele>288.60546875</ele>
        <time>2017-04-06T10:14:31Z</time>
      </trkpt>
      <trkpt lat="44.13782" lon="5.02204">
        <ele>287.52734375</ele>
        <time>2017-04-06T10:14:41Z</time>
      </trkpt>
      <trkpt lat="44.13773" lon="5.02207">
        <ele>286.4921875</ele>
        <time>2017-04-06T10:14:51Z</time>
      </trkpt>
      <trkpt lat="44.13764" lon="5.0221">
        <ele>285.375</ele>
        <time>2017-04-06T10:15:01Z</time>
      </trkpt>
      <trkpt lat="44.13755" lon="5.02213">
        <ele>284.2578125</ele>
        <time>2017-04-06T10:15:11Z</time>
      </trkpt>
      <trkpt lat="44.13746" lon="5.02216">
        <ele>283.5078125</ele>
        <time>2017-04-06T10:15:20Z</time>
      </trkpt>
      <trkpt lat="44.13737" lon="5.02219">
        <ele>282.7890625</ele>
        <time>2017-04-06T10:15:31Z</time>
      </trkpt>
      <trkpt lat="44.13734" lon="5.0222">
        <ele>282.53515625</ele>
        <time>2017-04-06T10:16:15Z</time>
      </trkpt>
      <trkpt lat="44.13725" lon="5.02224">
        <ele>281.55859375</ele>
        <time>2017-04-06T10:16:30Z</time>
      </trkpt>
      <trkpt lat="44.13719" lon="5.02225">
        <ele>280.85546875</ele>
        <time>2017-04-06T10:18:04Z</time>
      </trkpt>
      <trkpt lat="44.13711" lon="5.0222">
        <ele>280.36328125</ele>
        <time>2017-04-06T10:18:19Z</time>
      </trkpt>
      <trkpt lat="44.13713" lon="5.02221">
        <ele>280.484375</ele>
        <time>2017-04-06T10:18:56Z</time>
      </trkpt>
      <trkpt lat="44.13707" lon="5.02212">
        <ele>280.4296875</ele>
        <time>2017-04-06T10:19:08Z</time>
      </trkpt>
      <trkpt lat="44.13699" lon="5.02203">
        <ele>280.34375</ele>
        <time>2017-04-06T10:19:21Z</time>
      </trkpt>
      <trkpt lat="44.13691" lon="5.02196">
        <ele>280.265625</ele>
        <time>2017-04-06T10:19:31Z</time>
      </trkpt>
      <trkpt lat="44.13681" lon="5.02195">
        <ele>279.64453125</ele>
        <time>2017-04-06T10:19:41Z</time>
      </trkpt>
      <trkpt lat="44.1367" lon="5.02195">
        <ele>278.8984375</ele>
        <time>2017-04-06T10:19:51Z</time>
      </trkpt>
      <trkpt lat="44.1366" lon="5.02194">
        <ele>278.546875</ele>
        <time>2017-04-06T10:20:03Z</time>
      </trkpt>
      <trkpt lat="44.13648" lon="5.02194">
        <ele>278.1328125</ele>
        <time>2017-04-06T10:20:14Z</time>
      </trkpt>
      <trkpt lat="44.13637" lon="5.02194">
        <ele>277.984375</ele>
        <time>2017-04-06T10:20:24Z</time>
      </trkpt>
      <trkpt lat="44.13627" lon="5.02196">
        <ele>277.94140625</ele>
        <time>2017-04-06T10:20:33Z</time>
      </trkpt>
      <trkpt lat="44.13618" lon="5.02195">
        <ele>277.953125</ele>
        <time>2017-04-06T10:20:41Z</time>
      </trkpt>
      <trkpt lat="44.13608" lon="5.02196">
        <ele>278.53515625</ele>
        <time>2017-04-06T10:20:49Z</time>
      </trkpt>
      <trkpt lat="44.13598" lon="5.02197">
        <ele>279.25</ele>
        <time>2017-04-06T10:20:59Z</time>
      </trkpt>
      <trkpt lat="44.13589" lon="5.02197">
        <ele>279.88671875</ele>
        <time>2017-04-06T10:21:07Z</time>
      </trkpt>
      <trkpt lat="44.13579" lon="5.02197">
        <ele>280.57421875</ele>
        <time>2017-04-06T10:21:16Z</time>
      </trkpt>
      <trkpt lat="44.1357" lon="5.02197">
        <ele>281.25</ele>
        <time>2017-04-06T10:21:25Z</time>
      </trkpt>
      <trkpt lat="44.13559" lon="5.02198">
        <ele>282</ele>
        <time>2017-04-06T10:21:35Z</time>
      </trkpt>
      <trkpt lat="44.13548" lon="5.02198">
        <ele>282.8046875</ele>
        <time>2017-04-06T10:21:44Z</time>
      </trkpt>
      <trkpt lat="44.13539" lon="5.02198">
        <ele>283.5546875</ele>
        <time>2017-04-06T10:21:53Z</time>
      </trkpt>
      <trkpt lat="44.1353" lon="5.02198">
        <ele>284.1484375</ele>
        <time>2017-04-06T10:22:01Z</time>
      </trkpt>
      <trkpt lat="44.1352" lon="5.02201">
        <ele>284.578125</ele>
        <time>2017-04-06T10:22:10Z</time>
      </trkpt>
      <trkpt lat="44.13512" lon="5.02204">
        <ele>285.0546875</ele>
        <time>2017-04-06T10:22:22Z</time>
      </trkpt>
      <trkpt lat="44.13509" lon="5.02206">
        <ele>285.2734375</ele>
        <time>2017-04-06T10:24:02Z</time>
      </trkpt>
      <trkpt lat="44.135" lon="5.02209">
        <ele>285.65234375</ele>
        <time>2017-04-06T10:24:33Z</time>
      </trkpt>
      <trkpt lat="44.13491" lon="5.02216">
        <ele>286.18359375</ele>
        <time>2017-04-06T10:24:44Z</time>
      </trkpt>
      <trkpt lat="44.13482" lon="5.02221">
        <ele>286.76953125</ele>
        <time>2017-04-06T10:24:53Z</time>
      </trkpt>
      <trkpt lat="44.13473" lon="5.02226">
        <ele>286.34765625</ele>
        <time>2017-04-06T10:25:02Z</time>
      </trkpt>
      <trkpt lat="44.13463" lon="5.02229">
        <ele>285.31640625</ele>
        <time>2017-04-06T10:25:12Z</time>
      </trkpt>
      <trkpt lat="44.13455" lon="5.02228">
        <ele>284.5546875</ele>
        <time>2017-04-06T10:25:25Z</time>
      </trkpt>
      <trkpt lat="44.13446" lon="5.02229">
        <ele>283.70703125</ele>
        <time>2017-04-06T10:25:36Z</time>
      </trkpt>
      <trkpt lat="44.13436" lon="5.02232">
        <ele>282.84765625</ele>
        <time>2017-04-06T10:25:48Z</time>
      </trkpt>
      <trkpt lat="44.13427" lon="5.02235">
        <ele>281.94921875</ele>
        <time>2017-04-06T10:25:58Z</time>
      </trkpt>
      <trkpt lat="44.13419" lon="5.0224">
        <ele>281.21484375</ele>
        <time>2017-04-06T10:27:22Z</time>
      </trkpt>
      <trkpt lat="44.1341" lon="5.02235">
        <ele>281.1171875</ele>
        <time>2017-04-06T10:27:33Z</time>
      </trkpt>
      <trkpt lat="44.13402" lon="5.02229">
        <ele>281.0390625</ele>
        <time>2017-04-06T10:27:48Z</time>
      </trkpt>
      <trkpt lat="44.13391" lon="5.02232">
        <ele>281.01953125</ele>
        <time>2017-04-06T10:28:05Z</time>
      </trkpt>
      <trkpt lat="44.13381" lon="5.02237">
        <ele>282.11328125</ele>
        <time>2017-04-06T10:28:21Z</time>
      </trkpt>
      <trkpt lat="44.13371" lon="5.02234">
        <ele>283.54296875</ele>
        <time>2017-04-06T10:28:46Z</time>
      </trkpt>
      <trkpt lat="44.13364" lon="5.02223">
        <ele>285.5078125</ele>
        <time>2017-04-06T10:29:05Z</time>
      </trkpt>
      <trkpt lat="44.13357" lon="5.02211">
        <ele>286.72265625</ele>
        <time>2017-04-06T10:29:21Z</time>
      </trkpt>
      <trkpt lat="44.13349" lon="5.02201">
        <ele>288.3984375</ele>
        <time>2017-04-06T10:29:32Z</time>
      </trkpt>
      <trkpt lat="44.13338" lon="5.02198">
        <ele>291.1328125</ele>
        <time>2017-04-06T10:29:43Z</time>
      </trkpt>
      <trkpt lat="44.13327" lon="5.022">
        <ele>292.8046875</ele>
        <time>2017-04-06T10:29:55Z</time>
      </trkpt>
      <trkpt lat="44.13317" lon="5.022">
        <ele>294.4921875</ele>
        <time>2017-04-06T10:30:06Z</time>
      </trkpt>
      <trkpt lat="44.13307" lon="5.02204">
        <ele>296.06640625</ele>
        <time>2017-04-06T10:30:16Z</time>
      </trkpt>
      <trkpt lat="44.13297" lon="5.02209">
        <ele>297.3515625</ele>
        <time>2017-04-06T10:30:25Z</time>
      </trkpt>
      <trkpt lat="44.13289" lon="5.02218">
        <ele>298.9921875</ele>
        <time>2017-04-06T10:30:34Z</time>
      </trkpt>
      <trkpt lat="44.13283" lon="5.02229">
        <ele>299.99609375</ele>
        <time>2017-04-06T10:30:43Z</time>
      </trkpt>
      <trkpt lat="44.13278" lon="5.02243">
        <ele>299.109375</ele>
        <time>2017-04-06T10:30:54Z</time>
      </trkpt>
      <trkpt lat="44.13272" lon="5.02257">
        <ele>298.16015625</ele>
        <time>2017-04-06T10:31:05Z</time>
      </trkpt>
      <trkpt lat="44.13266" lon="5.02269">
        <ele>297.4140625</ele>
        <time>2017-04-06T10:31:15Z</time>
      </trkpt>
      <trkpt lat="44.13259" lon="5.0228">
        <ele>297.16796875</ele>
        <time>2017-04-06T10:31:25Z</time>
      </trkpt>
      <trkpt lat="44.13251" lon="5.02286">
        <ele>296.95703125</ele>
        <time>2017-04-06T10:31:45Z</time>
      </trkpt>
      <trkpt lat="44.13242" lon="5.02291">
        <ele>296.5234375</ele>
        <time>2017-04-06T10:32:00Z</time>
      </trkpt>
      <trkpt lat="44.13249" lon="5.0228">
        <ele>296.49609375</ele>
        <time>2017-04-06T10:33:11Z</time>
      </trkpt>
      <trkpt lat="44.13244" lon="5.02286">
        <ele>296.296875</ele>
        <time>2017-04-06T10:34:15Z</time>
      </trkpt>
      <trkpt lat="44.13236" lon="5.0229">
        <ele>295.99609375</ele>
        <time>2017-04-06T10:34:29Z</time>
      </trkpt>
      <trkpt lat="44.13235" lon="5.02287">
        <ele>295.671875</ele>
        <time>2017-04-06T10:36:19Z</time>
      </trkpt>
      <trkpt lat="44.13235" lon="5.02288">
        <ele>295.73828125</ele>
        <time>2017-04-06T11:41:06Z</time>
      </trkpt>
      <trkpt lat="44.13233" lon="5.02294">
        <ele>296.12890625</ele>
        <time>2017-04-06T11:42:35Z</time>
      </trkpt>
      <trkpt lat="44.13223" lon="5.02299">
        <ele>295.60546875</ele>
        <time>2017-04-06T11:42:53Z</time>
      </trkpt>
      <trkpt lat="44.13215" lon="5.02304">
        <ele>295.05078125</ele>
        <time>2017-04-06T11:43:07Z</time>
      </trkpt>
      <trkpt lat="44.13206" lon="5.0231">
        <ele>294.4140625</ele>
        <time>2017-04-06T11:43:23Z</time>
      </trkpt>
      <trkpt lat="44.13192" lon="5.02316">
        <ele>292.4921875</ele>
        <time>2017-04-06T11:43:41Z</time>
      </trkpt>
      <trkpt lat="44.1318" lon="5.02324">
        <ele>290.64453125</ele>
        <time>2017-04-06T11:43:56Z</time>
      </trkpt>
      <trkpt lat="44.13172" lon="5.02331">
        <ele>289.63671875</ele>
        <time>2017-04-06T11:44:07Z</time>
      </trkpt>
      <trkpt lat="44.13163" lon="5.02336">
        <ele>287.53515625</ele>
        <time>2017-04-06T11:44:18Z</time>
      </trkpt>
      <trkpt lat="44.13155" lon="5.02343">
        <ele>285.53515625</ele>
        <time>2017-04-06T11:44:30Z</time>
      </trkpt>
      <trkpt lat="44.13146" lon="5.02349">
        <ele>283.70703125</ele>
        <time>2017-04-06T11:44:40Z</time>
      </trkpt>
      <trkpt lat="44.13137" lon="5.02353">
        <ele>281.9453125</ele>
        <time>2017-04-06T11:44:51Z</time>
      </trkpt>
      <trkpt lat="44.13129" lon="5.02348">
        <ele>279.96875</ele>
        <time>2017-04-06T11:45:04Z</time>
      </trkpt>
      <trkpt lat="44.13122" lon="5.02337">
        <ele>278.2265625</ele>
        <time>2017-04-06T11:45:17Z</time>
      </trkpt>
      <trkpt lat="44.13115" lon="5.02331">
        <ele>276.421875</ele>
        <time>2017-04-06T11:45:39Z</time>
      </trkpt>
      <trkpt lat="44.13105" lon="5.02323">
        <ele>273.48046875</ele>
        <time>2017-04-06T11:45:53Z</time>
      </trkpt>
      <trkpt lat="44.13095" lon="5.02317">
        <ele>270.859375</ele>
        <time>2017-04-06T11:46:03Z</time>
      </trkpt>
      <trkpt lat="44.13086" lon="5.02322">
        <ele>270.078125</ele>
        <time>2017-04-06T11:46:13Z</time>
      </trkpt>
      <trkpt lat="44.13081" lon="5.02332">
        <ele>270.83203125</ele>
        <time>2017-04-06T11:46:22Z</time>
      </trkpt>
      <trkpt lat="44.13075" lon="5.02343">
        <ele>270.75</ele>
        <time>2017-04-06T11:46:34Z</time>
      </trkpt>
      <trkpt lat="44.13067" lon="5.02352">
        <ele>270.2890625</ele>
        <time>2017-04-06T11:46:45Z</time>
      </trkpt>
      <trkpt lat="44.13058" lon="5.02361">
        <ele>269.9140625</ele>
        <time>2017-04-06T11:46:57Z</time>
      </trkpt>
      <trkpt lat="44.13048" lon="5.02364">
        <ele>269.8046875</ele>
        <time>2017-04-06T11:47:08Z</time>
      </trkpt>
      <trkpt lat="44.13038" lon="5.02364">
        <ele>269.390625</ele>
        <time>2017-04-06T11:47:18Z</time>
      </trkpt>
      <trkpt lat="44.1303" lon="5.02361">
        <ele>268.89453125</ele>
        <time>2017-04-06T11:47:29Z</time>
      </trkpt>
      <trkpt lat="44.1302" lon="5.02356">
        <ele>268.1953125</ele>
        <time>2017-04-06T11:47:41Z</time>
      </trkpt>
      <trkpt lat="44.13013" lon="5.02359">
        <ele>268.12890625</ele>
        <time>2017-04-06T11:48:21Z</time>
      </trkpt>
      <trkpt lat="44.13005" lon="5.02365">
        <ele>268.3125</ele>
        <time>2017-04-06T11:48:44Z</time>
      </trkpt>
      <trkpt lat="44.13" lon="5.02376">
        <ele>269.13671875</ele>
        <time>2017-04-06T11:48:54Z</time>
      </trkpt>
      <trkpt lat="44.12997" lon="5.02389">
        <ele>270.03125</ele>
        <time>2017-04-06T11:49:08Z</time>
      </trkpt>
      <trkpt lat="44.12993" lon="5.024">
        <ele>270.8359375</ele>
        <time>2017-04-06T11:49:36Z</time>
      </trkpt>
      <trkpt lat="44.12983" lon="5.02407">
        <ele>271.34375</ele>
        <time>2017-04-06T11:50:07Z</time>
      </trkpt>
      <trkpt lat="44.12978" lon="5.02411">
        <ele>271.6328125</ele>
        <time>2017-04-06T11:50:33Z</time>
      </trkpt>
      <trkpt lat="44.12978" lon="5.02397">
        <ele>270.63671875</ele>
        <time>2017-04-06T11:51:01Z</time>
      </trkpt>
      <trkpt lat="44.12971" lon="5.02406">
        <ele>270.73828125</ele>
        <time>2017-04-06T11:51:17Z</time>
      </trkpt>
      <trkpt lat="44.12963" lon="5.02405">
        <ele>270.14453125</ele>
        <time>2017-04-06T11:51:33Z</time>
      </trkpt>
      <trkpt lat="44.12963" lon="5.0239">
        <ele>269.04296875</ele>
        <time>2017-04-06T11:51:49Z</time>
      </trkpt>
      <trkpt lat="44.12962" lon="5.02372">
        <ele>267.6328125</ele>
        <time>2017-04-06T11:52:06Z</time>
      </trkpt>
      <trkpt lat="44.12952" lon="5.02366">
        <ele>266.54296875</ele>
        <time>2017-04-06T11:52:19Z</time>
      </trkpt>
      <trkpt lat="44.12943" lon="5.02363">
        <ele>264.37109375</ele>
        <time>2017-04-06T11:52:29Z</time>
      </trkpt>
      <trkpt lat="44.12935" lon="5.02358">
        <ele>262.0078125</ele>
        <time>2017-04-06T11:52:43Z</time>
      </trkpt>
      <trkpt lat="44.12926" lon="5.02351">
        <ele>259.29296875</ele>
        <time>2017-04-06T11:53:04Z</time>
      </trkpt>
      <trkpt lat="44.12924" lon="5.02342">
        <ele>258.1796875</ele>
        <time>2017-04-06T11:53:27Z</time>
      </trkpt>
      <trkpt lat="44.12921" lon="5.0233">
        <ele>256.49609375</ele>
        <time>2017-04-06T11:53:45Z</time>
      </trkpt>
      <trkpt lat="44.12919" lon="5.02318">
        <ele>254.70703125</ele>
        <time>2017-04-06T11:53:57Z</time>
      </trkpt>
      <trkpt lat="44.12916" lon="5.02305">
        <ele>252.90234375</ele>
        <time>2017-04-06T11:54:21Z</time>
      </trkpt>
      <trkpt lat="44.12913" lon="5.02292">
        <ele>250.91796875</ele>
        <time>2017-04-06T11:54:33Z</time>
      </trkpt>
      <trkpt lat="44.12911" lon="5.02279">
        <ele>249.125</ele>
        <time>2017-04-06T11:54:44Z</time>
      </trkpt>
      <trkpt lat="44.12908" lon="5.02266">
        <ele>247.32421875</ele>
        <time>2017-04-06T11:54:54Z</time>
      </trkpt>
      <trkpt lat="44.12905" lon="5.02255">
        <ele>245.6875</ele>
        <time>2017-04-06T11:55:05Z</time>
      </trkpt>
      <trkpt lat="44.12902" lon="5.02242">
        <ele>243.93359375</ele>
        <time>2017-04-06T11:55:15Z</time>
      </trkpt>
      <trkpt lat="44.12898" lon="5.0223">
        <ele>242.2578125</ele>
        <time>2017-04-06T11:55:25Z</time>
      </trkpt>
      <trkpt lat="44.12894" lon="5.02217">
        <ele>240.3671875</ele>
        <time>2017-04-06T11:55:34Z</time>
      </trkpt>
      <trkpt lat="44.1289" lon="5.02205">
        <ele>238.3671875</ele>
        <time>2017-04-06T11:55:42Z</time>
      </trkpt>
      <trkpt lat="44.12886" lon="5.02192">
        <ele>236.2578125</ele>
        <time>2017-04-06T11:55:54Z</time>
      </trkpt>
      <trkpt lat="44.12879" lon="5.02185">
        <ele>234.61328125</ele>
        <time>2017-04-06T11:56:05Z</time>
      </trkpt>
      <trkpt lat="44.1287" lon="5.02182">
        <ele>232.68359375</ele>
        <time>2017-04-06T11:56:15Z</time>
      </trkpt>
      <trkpt lat="44.12862" lon="5.02174">
        <ele>231.40234375</ele>
        <time>2017-04-06T11:56:25Z</time>
      </trkpt>
      <trkpt lat="44.12853" lon="5.02167">
        <ele>230.55859375</ele>
        <time>2017-04-06T11:56:35Z</time>
      </trkpt>
      <trkpt lat="44.12843" lon="5.02169">
        <ele>230.359375</ele>
        <time>2017-04-06T11:56:45Z</time>
      </trkpt>
      <trkpt lat="44.12833" lon="5.02166">
        <ele>229.953125</ele>
        <time>2017-04-06T11:56:54Z</time>
      </trkpt>
      <trkpt lat="44.12824" lon="5.02162">
        <ele>229.67578125</ele>
        <time>2017-04-06T11:57:03Z</time>
      </trkpt>
      <trkpt lat="44.12814" lon="5.02159">
        <ele>229.46484375</ele>
        <time>2017-04-06T11:57:11Z</time>
      </trkpt>
      <trkpt lat="44.12805" lon="5.02153">
        <ele>229.84375</ele>
        <time>2017-04-06T11:57:21Z</time>
      </trkpt>
      <trkpt lat="44.128" lon="5.02141">
        <ele>229.51953125</ele>
        <time>2017-04-06T11:57:30Z</time>
      </trkpt>
      <trkpt lat="44.12794" lon="5.02129">
        <ele>228.93359375</ele>
        <time>2017-04-06T11:57:40Z</time>
      </trkpt>
      <trkpt lat="44.1279" lon="5.02116">
        <ele>228.03515625</ele>
        <time>2017-04-06T11:57:50Z</time>
      </trkpt>
      <trkpt lat="44.12787" lon="5.02102">
        <ele>226.88671875</ele>
        <time>2017-04-06T11:58:01Z</time>
      </trkpt>
      <trkpt lat="44.12786" lon="5.02087">
        <ele>225.39453125</ele>
        <time>2017-04-06T11:58:11Z</time>
      </trkpt>
      <trkpt lat="44.12783" lon="5.02072">
        <ele>223.9375</ele>
        <time>2017-04-06T11:58:21Z</time>
      </trkpt>
      <trkpt lat="44.12775" lon="5.02062">
        <ele>223.7578125</ele>
        <time>2017-04-06T11:58:30Z</time>
      </trkpt>
      <trkpt lat="44.12767" lon="5.02053">
        <ele>223.4375</ele>
        <time>2017-04-06T11:58:41Z</time>
      </trkpt>
      <trkpt lat="44.12759" lon="5.02042">
        <ele>222.8203125</ele>
        <time>2017-04-06T11:58:51Z</time>
      </trkpt>
      <trkpt lat="44.12754" lon="5.02029">
        <ele>221.640625</ele>
        <time>2017-04-06T11:59:01Z</time>
      </trkpt>
      <trkpt lat="44.12747" lon="5.02015">
        <ele>220.6171875</ele>
        <time>2017-04-06T11:59:12Z</time>
      </trkpt>
      <trkpt lat="44.12742" lon="5.02">
        <ele>218.98828125</ele>
        <time>2017-04-06T11:59:27Z</time>
      </trkpt>
      <trkpt lat="44.12738" lon="5.01984">
        <ele>216.84765625</ele>
        <time>2017-04-06T11:59:44Z</time>
      </trkpt>
      <trkpt lat="44.12735" lon="5.01969">
        <ele>214.89453125</ele>
        <time>2017-04-06T11:59:56Z</time>
      </trkpt>
      <trkpt lat="44.12731" lon="5.01954">
        <ele>213.0390625</ele>
        <time>2017-04-06T12:00:06Z</time>
      </trkpt>
      <trkpt lat="44.12727" lon="5.01939">
        <ele>211.6875</ele>
        <time>2017-04-06T12:00:17Z</time>
      </trkpt>
      <trkpt lat="44.12722" lon="5.01924">
        <ele>211.49609375</ele>
        <time>2017-04-06T12:00:28Z</time>
      </trkpt>
      <trkpt lat="44.12718" lon="5.01909">
        <ele>211.26171875</ele>
        <time>2017-04-06T12:00:37Z</time>
      </trkpt>
      <trkpt lat="44.12714" lon="5.01896">
        <ele>211.13671875</ele>
        <time>2017-04-06T12:00:47Z</time>
      </trkpt>
      <trkpt lat="44.12711" lon="5.01882">
        <ele>210.578125</ele>
        <time>2017-04-06T12:00:56Z</time>
      </trkpt>
      <trkpt lat="44.12708" lon="5.01867">
        <ele>209.73046875</ele>
        <time>2017-04-06T12:01:05Z</time>
      </trkpt>
      <trkpt lat="44.12707" lon="5.01854">
        <ele>208.921875</ele>
        <time>2017-04-06T12:01:13Z</time>
      </trkpt>
      <trkpt lat="44.12706" lon="5.0184">
        <ele>208.19921875</ele>
        <time>2017-04-06T12:01:23Z</time>
      </trkpt>
      <trkpt lat="44.12705" lon="5.01825">
        <ele>207.58203125</ele>
        <time>2017-04-06T12:01:33Z</time>
      </trkpt>
      <trkpt lat="44.12705" lon="5.0181">
        <ele>207.22265625</ele>
        <time>2017-04-06T12:01:42Z</time>
      </trkpt>
      <trkpt lat="44.12703" lon="5.01796">
        <ele>206.80078125</ele>
        <time>2017-04-06T12:01:50Z</time>
      </trkpt>
      <trkpt lat="44.12701" lon="5.01782">
        <ele>206.13671875</ele>
        <time>2017-04-06T12:02:00Z</time>
      </trkpt>
      <trkpt lat="44.12699" lon="5.01767">
        <ele>205.52734375</ele>
        <time>2017-04-06T12:02:09Z</time>
      </trkpt>
      <trkpt lat="44.12697" lon="5.01752">
        <ele>205.0078125</ele>
        <time>2017-04-06T12:02:19Z</time>
      </trkpt>
      <trkpt lat="44.12694" lon="5.01737">
        <ele>204.75390625</ele>
        <time>2017-04-06T12:02:28Z</time>
      </trkpt>
      <trkpt lat="44.1269" lon="5.01724">
        <ele>204.609375</ele>
        <time>2017-04-06T12:02:37Z</time>
      </trkpt>
      <trkpt lat="44.12688" lon="5.01708">
        <ele>203.984375</ele>
        <time>2017-04-06T12:02:47Z</time>
      </trkpt>
      <trkpt lat="44.12686" lon="5.01694">
        <ele>203.48828125</ele>
        <time>2017-04-06T12:02:56Z</time>
      </trkpt>
      <trkpt lat="44.12683" lon="5.01679">
        <ele>202.93359375</ele>
        <time>2017-04-06T12:03:06Z</time>
      </trkpt>
      <trkpt lat="44.12679" lon="5.01664">
        <ele>202.5078125</ele>
        <time>2017-04-06T12:03:19Z</time>
      </trkpt>
      <trkpt lat="44.12677" lon="5.01645">
        <ele>202.25390625</ele>
        <time>2017-04-06T12:03:31Z</time>
      </trkpt>
      <trkpt lat="44.12676" lon="5.01627">
        <ele>201.8359375</ele>
        <time>2017-04-06T12:03:43Z</time>
      </trkpt>
      <trkpt lat="44.1267" lon="5.01614">
        <ele>202.90234375</ele>
        <time>2017-04-06T12:03:56Z</time>
      </trkpt>
      <trkpt lat="44.12664" lon="5.01591">
        <ele>206.48828125</ele>
        <time>2017-04-06T12:04:13Z</time>
      </trkpt>
      <trkpt lat="44.12656" lon="5.01578">
        <ele>209.46875</ele>
        <time>2017-04-06T12:04:32Z</time>
      </trkpt>
      <trkpt lat="44.12648" lon="5.01569">
        <ele>211.81640625</ele>
        <time>2017-04-06T12:04:46Z</time>
      </trkpt>
      <trkpt lat="44.12646" lon="5.01555">
        <ele>212.84375</ele>
        <time>2017-04-06T12:04:59Z</time>
      </trkpt>
      <trkpt lat="44.12639" lon="5.01545">
        <ele>214.77734375</ele>
        <time>2017-04-06T12:05:10Z</time>
      </trkpt>
      <trkpt lat="44.12634" lon="5.01533">
        <ele>216.33984375</ele>
        <time>2017-04-06T12:05:29Z</time>
      </trkpt>
      <trkpt lat="44.12628" lon="5.01519">
        <ele>217.203125</ele>
        <time>2017-04-06T12:05:42Z</time>
      </trkpt>
      <trkpt lat="44.12623" lon="5.01507">
        <ele>217.8515625</ele>
        <time>2017-04-06T12:05:51Z</time>
      </trkpt>
      <trkpt lat="44.1262" lon="5.01495">
        <ele>218.0625</ele>
        <time>2017-04-06T12:06:10Z</time>
      </trkpt>
      <trkpt lat="44.12615" lon="5.01479">
        <ele>218.12890625</ele>
        <time>2017-04-06T12:06:26Z</time>
      </trkpt>
      <trkpt lat="44.12614" lon="5.01463">
        <ele>217.3515625</ele>
        <time>2017-04-06T12:06:42Z</time>
      </trkpt>
      <trkpt lat="44.12611" lon="5.01446">
        <ele>216.75390625</ele>
        <time>2017-04-06T12:06:55Z</time>
      </trkpt>
      <trkpt lat="44.12608" lon="5.0143">
        <ele>216.83203125</ele>
        <time>2017-04-06T12:07:15Z</time>
      </trkpt>
      <trkpt lat="44.12605" lon="5.01415">
        <ele>217.6640625</ele>
        <time>2017-04-06T12:07:29Z</time>
      </trkpt>
      <trkpt lat="44.12598" lon="5.01404">
        <ele>220.375</ele>
        <time>2017-04-06T12:07:55Z</time>
      </trkpt>
      <trkpt lat="44.1259" lon="5.01401">
        <ele>224.390625</ele>
        <time>2017-04-06T12:09:08Z</time>
      </trkpt>
      <trkpt lat="44.12586" lon="5.01399">
        <ele>225.25390625</ele>
        <time>2017-04-06T12:10:02Z</time>
      </trkpt>
      <trkpt lat="44.12577" lon="5.01394">
        <ele>225.95703125</ele>
        <time>2017-04-06T12:10:18Z</time>
      </trkpt>
      <trkpt lat="44.12577" lon="5.01379">
        <ele>225.8671875</ele>
        <time>2017-04-06T12:10:41Z</time>
      </trkpt>
      <trkpt lat="44.12573" lon="5.01367">
        <ele>226.203125</ele>
        <time>2017-04-06T12:10:52Z</time>
      </trkpt>
      <trkpt lat="44.1257" lon="5.01351">
        <ele>226.47265625</ele>
        <time>2017-04-06T12:11:03Z</time>
      </trkpt>
      <trkpt lat="44.12572" lon="5.01336">
        <ele>226.59765625</ele>
        <time>2017-04-06T12:11:15Z</time>
      </trkpt>
      <trkpt lat="44.12567" lon="5.01322">
        <ele>226.7890625</ele>
        <time>2017-04-06T12:11:27Z</time>
      </trkpt>
      <trkpt lat="44.12557" lon="5.01317">
        <ele>226.10546875</ele>
        <time>2017-04-06T12:11:41Z</time>
      </trkpt>
      <trkpt lat="44.12547" lon="5.01313">
        <ele>224.09765625</ele>
        <time>2017-04-06T12:11:57Z</time>
      </trkpt>
      <trkpt lat="44.12538" lon="5.01306">
        <ele>222.00390625</ele>
        <time>2017-04-06T12:12:07Z</time>
      </trkpt>
      <trkpt lat="44.12531" lon="5.01302">
        <ele>220.39453125</ele>
        <time>2017-04-06T12:12:48Z</time>
      </trkpt>
      <trkpt lat="44.1253" lon="5.01306">
        <ele>220.1796875</ele>
        <time>2017-04-06T12:15:52Z</time>
      </trkpt>
      <trkpt lat="44.12532" lon="5.01294">
        <ele>220.6328125</ele>
        <time>2017-04-06T12:16:10Z</time>
      </trkpt>
      <trkpt lat="44.12532" lon="5.0128">
        <ele>220.62109375</ele>
        <time>2017-04-06T12:16:39Z</time>
      </trkpt>
      <trkpt lat="44.12529" lon="5.01267">
        <ele>219.40234375</ele>
        <time>2017-04-06T12:16:56Z</time>
      </trkpt>
      <trkpt lat="44.12529" lon="5.01251">
        <ele>218.76171875</ele>
        <time>2017-04-06T12:17:08Z</time>
      </trkpt>
      <trkpt lat="44.12532" lon="5.01236">
        <ele>219.08984375</ele>
        <time>2017-04-06T12:17:21Z</time>
      </trkpt>
      <trkpt lat="44.12535" lon="5.01221">
        <ele>219.234375</ele>
        <time>2017-04-06T12:17:33Z</time>
      </trkpt>
      <trkpt lat="44.12541" lon="5.01204">
        <ele>219.4453125</ele>
        <time>2017-04-06T12:18:00Z</time>
      </trkpt>
      <trkpt lat="44.12549" lon="5.01191">
        <ele>220.21875</ele>
        <time>2017-04-06T12:18:18Z</time>
      </trkpt>
      <trkpt lat="44.12556" lon="5.0118">
        <ele>221.203125</ele>
        <time>2017-04-06T12:18:34Z</time>
      </trkpt>
      <trkpt lat="44.12561" lon="5.01169">
        <ele>221.921875</ele>
        <time>2017-04-06T12:18:46Z</time>
      </trkpt>
      <trkpt lat="44.12563" lon="5.01153">
        <ele>221.7265625</ele>
        <time>2017-04-06T12:19:00Z</time>
      </trkpt>
      <trkpt lat="44.12565" lon="5.01137">
        <ele>221.40625</ele>
        <time>2017-04-06T12:19:12Z</time>
      </trkpt>
      <trkpt lat="44.12559" lon="5.01123">
        <ele>220.18359375</ele>
        <time>2017-04-06T12:19:26Z</time>
      </trkpt>
      <trkpt lat="44.12558" lon="5.0111">
        <ele>219.6171875</ele>
        <time>2017-04-06T12:19:55Z</time>
      </trkpt>
      <trkpt lat="44.12556" lon="5.01098">
        <ele>219.36328125</ele>
        <time>2017-04-06T12:20:34Z</time>
      </trkpt>
      <trkpt lat="44.12552" lon="5.0109">
        <ele>218.75390625</ele>
        <time>2017-04-06T12:21:50Z</time>
      </trkpt>
      <trkpt lat="44.1255" lon="5.01084">
        <ele>218.3359375</ele>
        <time>2017-04-06T12:23:09Z</time>
      </trkpt>
      <trkpt lat="44.12548" lon="5.01073">
        <ele>217.5625</ele>
        <time>2017-04-06T12:23:38Z</time>
      </trkpt>
      <trkpt lat="44.12544" lon="5.01062">
        <ele>216.171875</ele>
        <time>2017-04-06T12:24:02Z</time>
      </trkpt>
      <trkpt lat="44.12538" lon="5.01048">
        <ele>214.1015625</ele>
        <time>2017-04-06T12:24:28Z</time>
      </trkpt>
      <trkpt lat="44.12535" lon="5.01036">
        <ele>212.25</ele>
        <time>2017-04-06T12:24:45Z</time>
      </trkpt>
      <trkpt lat="44.12531" lon="5.01036">
        <ele>210.3984375</ele>
        <time>2017-04-06T12:25:03Z</time>
      </trkpt>
      <trkpt lat="44.12525" lon="5.01044">
        <ele>207.8984375</ele>
        <time>2017-04-06T12:25:19Z</time>
      </trkpt>
      <trkpt lat="44.1252" lon="5.01041">
        <ele>204.8125</ele>
        <time>2017-04-06T12:25:43Z</time>
      </trkpt>
      <trkpt lat="44.12513" lon="5.01041">
        <ele>201.10546875</ele>
        <time>2017-04-06T12:26:05Z</time>
      </trkpt>
      <trkpt lat="44.1251" lon="5.01029">
        <ele>198.48828125</ele>
        <time>2017-04-06T12:26:32Z</time>
      </trkpt>
      <trkpt lat="44.12512" lon="5.01014">
        <ele>197.3515625</ele>
        <time>2017-04-06T12:26:50Z</time>
      </trkpt>
      <trkpt lat="44.12512" lon="5.01">
        <ele>195.26953125</ele>
        <time>2017-04-06T12:27:08Z</time>
      </trkpt>
      <trkpt lat="44.12507" lon="5.0099">
        <ele>190.8046875</ele>
        <time>2017-04-06T12:27:43Z</time>
      </trkpt>
      <trkpt lat="44.12509" lon="5.00975">
        <ele>188.94140625</ele>
        <time>2017-04-06T12:29:22Z</time>
      </trkpt>
      <trkpt lat="44.12508" lon="5.00974">
        <ele>188.046875</ele>
        <time>2017-04-06T12:34:06Z</time>
      </trkpt>
      <trkpt lat="44.12504" lon="5.00976">
        <ele>186.640625</ele>
        <time>2017-04-06T12:34:47Z</time>
      </trkpt>
      <trkpt lat="44.12505" lon="5.00986">
        <ele>188.8203125</ele>
        <time>2017-04-06T12:35:18Z</time>
      </trkpt>
      <trkpt lat="44.12501" lon="5.00992">
        <ele>187.95703125</ele>
        <time>2017-04-06T12:35:46Z</time>
      </trkpt>
      <trkpt lat="44.12496" lon="5.00997">
        <ele>185.5625</ele>
        <time>2017-04-06T12:36:06Z</time>
      </trkpt>
      <trkpt lat="44.12487" lon="5.01003">
        <ele>181.52734375</ele>
        <time>2017-04-06T12:36:29Z</time>
      </trkpt>
      <trkpt lat="44.12481" lon="5.00996">
        <ele>176.8359375</ele>
        <time>2017-04-06T12:36:48Z</time>
      </trkpt>
      <trkpt lat="44.12471" lon="5.01001">
        <ele>172.45703125</ele>
        <time>2017-04-06T12:37:03Z</time>
      </trkpt>
      <trkpt lat="44.12462" lon="5.01007">
        <ele>168.875</ele>
        <time>2017-04-06T12:37:15Z</time>
      </trkpt>
      <trkpt lat="44.12457" lon="5.01017">
        <ele>167.76171875</ele>
        <time>2017-04-06T12:37:25Z</time>
      </trkpt>
      <trkpt lat="44.12451" lon="5.01029">
        <ele>166.38671875</ele>
        <time>2017-04-06T12:37:40Z</time>
      </trkpt>
      <trkpt lat="44.12447" lon="5.01038">
        <ele>165.16796875</ele>
        <time>2017-04-06T12:37:56Z</time>
      </trkpt>
      <trkpt lat="44.12442" lon="5.01048">
        <ele>163.8125</ele>
        <time>2017-04-06T12:38:15Z</time>
      </trkpt>
      <trkpt lat="44.12435" lon="5.01057">
        <ele>160.78125</ele>
        <time>2017-04-06T12:38:56Z</time>
      </trkpt>
      <trkpt lat="44.12429" lon="5.01068">
        <ele>158.97265625</ele>
        <time>2017-04-06T12:39:10Z</time>
      </trkpt>
      <trkpt lat="44.12423" lon="5.01081">
        <ele>156.96484375</ele>
        <time>2017-04-06T12:39:24Z</time>
      </trkpt>
      <trkpt lat="44.12417" lon="5.0109">
        <ele>154.21875</ele>
        <time>2017-04-06T12:39:41Z</time>
      </trkpt>
      <trkpt lat="44.1241" lon="5.01101">
        <ele>151.0703125</ele>
        <time>2017-04-06T12:39:58Z</time>
      </trkpt>
      <trkpt lat="44.12402" lon="5.01109">
        <ele>147.22265625</ele>
        <time>2017-04-06T12:40:14Z</time>
      </trkpt>
      <trkpt lat="44.12398" lon="5.01121">
        <ele>145.25</ele>
        <time>2017-04-06T12:40:27Z</time>
      </trkpt>
      <trkpt lat="44.12394" lon="5.01135">
        <ele>144.140625</ele>
        <time>2017-04-06T12:40:43Z</time>
      </trkpt>
      <trkpt lat="44.12391" lon="5.0115">
        <ele>143.265625</ele>
        <time>2017-04-06T12:40:55Z</time>
      </trkpt>
      <trkpt lat="44.12387" lon="5.01149">
        <ele>140.765625</ele>
        <time>2017-04-06T12:41:14Z</time>
      </trkpt>
      <trkpt lat="44.12384" lon="5.01137">
        <ele>138.40625</ele>
        <time>2017-04-06T12:41:34Z</time>
      </trkpt>
      <trkpt lat="44.12378" lon="5.01142">
        <ele>135.43359375</ele>
        <time>2017-04-06T12:42:17Z</time>
      </trkpt>
      <trkpt lat="44.12376" lon="5.01155">
        <ele>134.57421875</ele>
        <time>2017-04-06T12:42:36Z</time>
      </trkpt>
      <trkpt lat="44.12369" lon="5.01165">
        <ele>131.12109375</ele>
        <time>2017-04-06T12:42:52Z</time>
      </trkpt>
      <trkpt lat="44.12365" lon="5.01152">
        <ele>128.46484375</ele>
        <time>2017-04-06T12:43:08Z</time>
      </trkpt>
      <trkpt lat="44.12359" lon="5.01143">
        <ele>124.53515625</ele>
        <time>2017-04-06T12:43:23Z</time>
      </trkpt>
      <trkpt lat="44.12357" lon="5.01153">
        <ele>124.28125</ele>
        <time>2017-04-06T12:43:54Z</time>
      </trkpt>
      <trkpt lat="44.12354" lon="5.01168">
        <ele>123.0234375</ele>
        <time>2017-04-06T12:44:07Z</time>
      </trkpt>
      <trkpt lat="44.12353" lon="5.0118">
        <ele>123.328125</ele>
        <time>2017-04-06T12:44:40Z</time>
      </trkpt>
      <trkpt lat="44.12344" lon="5.0118">
        <ele>118.125</ele>
        <time>2017-04-06T12:44:54Z</time>
      </trkpt>
      <trkpt lat="44.12336" lon="5.01184">
        <ele>114.484375</ele>
        <time>2017-04-06T12:45:04Z</time>
      </trkpt>
      <trkpt lat="44.12331" lon="5.01196">
        <ele>113.38671875</ele>
        <time>2017-04-06T12:45:15Z</time>
      </trkpt>
      <trkpt lat="44.12327" lon="5.01198">
        <ele>112.2734375</ele>
        <time>2017-04-06T12:46:50Z</time>
      </trkpt>
      <trkpt lat="44.12326" lon="5.01212">
        <ele>113.19140625</ele>
        <time>2017-04-06T12:47:18Z</time>
      </trkpt>
      <trkpt lat="44.12328" lon="5.01228">
        <ele>115.29296875</ele>
        <time>2017-04-06T12:47:54Z</time>
      </trkpt>
      <trkpt lat="44.12333" lon="5.01237">
        <ele>117.48828125</ele>
        <time>2017-04-06T12:48:56Z</time>
      </trkpt>
      <trkpt lat="44.1233" lon="5.01244">
        <ele>117.02734375</ele>
        <time>2017-04-06T12:50:02Z</time>
      </trkpt>
      <trkpt lat="44.12328" lon="5.01252">
        <ele>116.40234375</ele>
        <time>2017-04-06T12:50:50Z</time>
      </trkpt>
      <trkpt lat="44.12327" lon="5.01256">
        <ele>116.33984375</ele>
        <time>2017-04-06T12:52:00Z</time>
      </trkpt>
      <trkpt lat="44.12325" lon="5.01251">
        <ele>115.25390625</ele>
        <time>2017-04-06T12:52:40Z</time>
      </trkpt>
      <trkpt lat="44.12332" lon="5.01245">
        <ele>117.81640625</ele>
        <time>2017-04-06T12:56:30Z</time>
      </trkpt>
      <trkpt lat="44.12339" lon="5.01235">
        <ele>119.58984375</ele>
        <time>2017-04-06T12:57:03Z</time>
      </trkpt>
      <trkpt lat="44.12345" lon="5.01209">
        <ele>120.54296875</ele>
        <time>2017-04-06T12:57:32Z</time>
      </trkpt>
      <trkpt lat="44.12338" lon="5.01199">
        <ele>116.08984375</ele>
        <time>2017-04-06T12:57:49Z</time>
      </trkpt>
      <trkpt lat="44.12337" lon="5.01184">
        <ele>114.87109375</ele>
        <time>2017-04-06T12:58:02Z</time>
      </trkpt>
      <trkpt lat="44.12334" lon="5.01169">
        <ele>113.44921875</ele>
        <time>2017-04-06T12:58:43Z</time>
      </trkpt>
      <trkpt lat="44.1233" lon="5.01156">
        <ele>111.6171875</ele>
        <time>2017-04-06T12:58:54Z</time>
      </trkpt>
      <trkpt lat="44.12324" lon="5.01143">
        <ele>109.65234375</ele>
        <time>2017-04-06T12:59:04Z</time>
      </trkpt>
      <trkpt lat="44.12317" lon="5.01133">
        <ele>107.66796875</ele>
        <time>2017-04-06T12:59:13Z</time>
      </trkpt>
      <trkpt lat="44.1231" lon="5.01125">
        <ele>105.515625</ele>
        <time>2017-04-06T12:59:21Z</time>
      </trkpt>
      <trkpt lat="44.12302" lon="5.01118">
        <ele>103.36328125</ele>
        <time>2017-04-06T12:59:31Z</time>
      </trkpt>
      <trkpt lat="44.12293" lon="5.01112">
        <ele>101.25</ele>
        <time>2017-04-06T12:59:41Z</time>
      </trkpt>
      <trkpt lat="44.12286" lon="5.01106">
        <ele>99.27734375</ele>
        <time>2017-04-06T12:59:50Z</time>
      </trkpt>
      <trkpt lat="44.12278" lon="5.01099">
        <ele>97.6015625</ele>
        <time>2017-04-06T12:59:59Z</time>
      </trkpt>
      <trkpt lat="44.1227" lon="5.01091">
        <ele>96.171875</ele>
        <time>2017-04-06T13:00:08Z</time>
      </trkpt>
      <trkpt lat="44.12261" lon="5.01084">
        <ele>94.67578125</ele>
        <time>2017-04-06T13:00:19Z</time>
      </trkpt>
      <trkpt lat="44.12254" lon="5.01075">
        <ele>93.32421875</ele>
        <time>2017-04-06T13:00:28Z</time>
      </trkpt>
      <trkpt lat="44.12246" lon="5.01068">
        <ele>91.66015625</ele>
        <time>2017-04-06T13:00:36Z</time>
      </trkpt>
      <trkpt lat="44.1224" lon="5.01058">
        <ele>90.265625</ele>
        <time>2017-04-06T13:00:45Z</time>
      </trkpt>
      <trkpt lat="44.12236" lon="5.01046">
        <ele>89.34765625</ele>
        <time>2017-04-06T13:00:54Z</time>
      </trkpt>
      <trkpt lat="44.12234" lon="5.01031">
        <ele>89.015625</ele>
        <time>2017-04-06T13:01:03Z</time>
      </trkpt>
      <trkpt lat="44.12235" lon="5.01017">
        <ele>89.171875</ele>
        <time>2017-04-06T13:01:12Z</time>
      </trkpt>
      <trkpt lat="44.12231" lon="5.01006">
        <ele>88.4140625</ele>
        <time>2017-04-06T13:01:21Z</time>
      </trkpt>
      <trkpt lat="44.12226" lon="5.00996">
        <ele>87.48046875</ele>
        <time>2017-04-06T13:01:35Z</time>
      </trkpt>
      <trkpt lat="44.12227" lon="5.00984">
        <ele>87.27734375</ele>
        <time>2017-04-06T13:02:05Z</time>
      </trkpt>
      <trkpt lat="44.12229" lon="5.0097">
        <ele>87.0390625</ele>
        <time>2017-04-06T13:02:18Z</time>
      </trkpt>
      <trkpt lat="44.12229" lon="5.00956">
        <ele>87.0703125</ele>
        <time>2017-04-06T13:02:29Z</time>
      </trkpt>
      <trkpt lat="44.1223" lon="5.00943">
        <ele>87.14453125</ele>
        <time>2017-04-06T13:02:42Z</time>
      </trkpt>
      <trkpt lat="44.12231" lon="5.0093">
        <ele>86.8359375</ele>
        <time>2017-04-06T13:02:53Z</time>
      </trkpt>
      <trkpt lat="44.12234" lon="5.00917">
        <ele>86.56640625</ele>
        <time>2017-04-06T13:03:05Z</time>
      </trkpt>
      <trkpt lat="44.12235" lon="5.00904">
        <ele>86.421875</ele>
        <time>2017-04-06T13:03:15Z</time>
      </trkpt>
      <trkpt lat="44.12238" lon="5.00891">
        <ele>86.43359375</ele>
        <time>2017-04-06T13:03:25Z</time>
      </trkpt>
      <trkpt lat="44.12241" lon="5.00877">
        <ele>86.8671875</ele>
        <time>2017-04-06T13:03:36Z</time>
      </trkpt>
      <trkpt lat="44.12244" lon="5.00862">
        <ele>87.26953125</ele>
        <time>2017-04-06T13:03:46Z</time>
      </trkpt>
      <trkpt lat="44.12247" lon="5.00848">
        <ele>87.171875</ele>
        <time>2017-04-06T13:03:56Z</time>
      </trkpt>
      <trkpt lat="44.12251" lon="5.00835">
        <ele>87.26171875</ele>
        <time>2017-04-06T13:04:05Z</time>
      </trkpt>
      <trkpt lat="44.12254" lon="5.00823">
        <ele>87.27734375</ele>
        <time>2017-04-06T13:04:14Z</time>
      </trkpt>
      <trkpt lat="44.12257" lon="5.00809">
        <ele>87.3359375</ele>
        <time>2017-04-06T13:04:23Z</time>
      </trkpt>
      <trkpt lat="44.12262" lon="5.00796">
        <ele>87.671875</ele>
        <time>2017-04-06T13:04:32Z</time>
      </trkpt>
      <trkpt lat="44.12267" lon="5.00784">
        <ele>88.10546875</ele>
        <time>2017-04-06T13:04:41Z</time>
      </trkpt>
      <trkpt lat="44.12271" lon="5.00773">
        <ele>88.515625</ele>
        <time>2017-04-06T13:04:50Z</time>
      </trkpt>
      <trkpt lat="44.12276" lon="5.0076">
        <ele>88.9453125</ele>
        <time>2017-04-06T13:05:00Z</time>
      </trkpt>
      <trkpt lat="44.12281" lon="5.00747">
        <ele>89.33203125</ele>
        <time>2017-04-06T13:05:09Z</time>
      </trkpt>
      <trkpt lat="44.12286" lon="5.00735">
        <ele>89.359375</ele>
        <time>2017-04-06T13:05:18Z</time>
      </trkpt>
      <trkpt lat="44.12291" lon="5.00723">
        <ele>89.3671875</ele>
        <time>2017-04-06T13:05:27Z</time>
      </trkpt>
      <trkpt lat="44.12296" lon="5.00712">
        <ele>90.078125</ele>
        <time>2017-04-06T13:06:09Z</time>
      </trkpt>
      <trkpt lat="44.12299" lon="5.00698">
        <ele>90.23046875</ele>
        <time>2017-04-06T13:06:19Z</time>
      </trkpt>
      <trkpt lat="44.12298" lon="5.00684">
        <ele>89.58984375</ele>
        <time>2017-04-06T13:06:29Z</time>
      </trkpt>
      <trkpt lat="44.12293" lon="5.00671">
        <ele>88.51171875</ele>
        <time>2017-04-06T13:06:39Z</time>
      </trkpt>
      <trkpt lat="44.12289" lon="5.00658">
        <ele>88.09765625</ele>
        <time>2017-04-06T13:06:49Z</time>
      </trkpt>
      <trkpt lat="44.12285" lon="5.00643">
        <ele>87.98828125</ele>
        <time>2017-04-06T13:06:59Z</time>
      </trkpt>
      <trkpt lat="44.12287" lon="5.00627">
        <ele>88.4140625</ele>
        <time>2017-04-06T13:07:09Z</time>
      </trkpt>
      <trkpt lat="44.12289" lon="5.00611">
        <ele>88.76953125</ele>
        <time>2017-04-06T13:07:19Z</time>
      </trkpt>
      <trkpt lat="44.12292" lon="5.00593">
        <ele>88.48828125</ele>
        <time>2017-04-06T13:07:29Z</time>
      </trkpt>
      <trkpt lat="44.12296" lon="5.00578">
        <ele>88.37890625</ele>
        <time>2017-04-06T13:07:39Z</time>
      </trkpt>
      <trkpt lat="44.123" lon="5.00561">
        <ele>88.06640625</ele>
        <time>2017-04-06T13:07:49Z</time>
      </trkpt>
      <trkpt lat="44.12304" lon="5.00547">
        <ele>87.84765625</ele>
        <time>2017-04-06T13:07:58Z</time>
      </trkpt>
      <trkpt lat="44.12308" lon="5.00534">
        <ele>87.82421875</ele>
        <time>2017-04-06T13:08:08Z</time>
      </trkpt>
      <trkpt lat="44.12314" lon="5.00521">
        <ele>87.19921875</ele>
        <time>2017-04-06T13:08:18Z</time>
      </trkpt>
      <trkpt lat="44.12325" lon="5.00515">
        <ele>86.53515625</ele>
        <time>2017-04-06T13:08:29Z</time>
      </trkpt>
      <trkpt lat="44.12337" lon="5.00519">
        <ele>87.00390625</ele>
        <time>2017-04-06T13:08:41Z</time>
      </trkpt>
      <trkpt lat="44.12347" lon="5.00529">
        <ele>88.8203125</ele>
        <time>2017-04-06T13:08:50Z</time>
      </trkpt>
      <trkpt lat="44.12355" lon="5.00539">
        <ele>90.6953125</ele>
        <time>2017-04-06T13:09:00Z</time>
      </trkpt>
      <trkpt lat="44.12362" lon="5.0055">
        <ele>92.62890625</ele>
        <time>2017-04-06T13:09:11Z</time>
      </trkpt>
      <trkpt lat="44.12374" lon="5.0055">
        <ele>94.26953125</ele>
        <time>2017-04-06T13:09:23Z</time>
      </trkpt>
      <trkpt lat="44.12385" lon="5.00541">
        <ele>94.61328125</ele>
        <time>2017-04-06T13:09:33Z</time>
      </trkpt>
      <trkpt lat="44.12393" lon="5.00529">
        <ele>93.8984375</ele>
        <time>2017-04-06T13:09:42Z</time>
      </trkpt>
      <trkpt lat="44.12398" lon="5.00516">
        <ele>93.1171875</ele>
        <time>2017-04-06T13:09:51Z</time>
      </trkpt>
      <trkpt lat="44.12404" lon="5.00502">
        <ele>92.5</ele>
        <time>2017-04-06T13:10:01Z</time>
      </trkpt>
      <trkpt lat="44.1241" lon="5.00489">
        <ele>91.96875</ele>
        <time>2017-04-06T13:10:10Z</time>
      </trkpt>
      <trkpt lat="44.12416" lon="5.00477">
        <ele>91.48046875</ele>
        <time>2017-04-06T13:10:19Z</time>
      </trkpt>
      <trkpt lat="44.12421" lon="5.00463">
        <ele>91.09375</ele>
        <time>2017-04-06T13:10:28Z</time>
      </trkpt>
      <trkpt lat="44.12427" lon="5.00449">
        <ele>90.75390625</ele>
        <time>2017-04-06T13:10:37Z</time>
      </trkpt>
      <trkpt lat="44.12432" lon="5.00436">
        <ele>90.50390625</ele>
        <time>2017-04-06T13:10:58Z</time>
      </trkpt>
      <trkpt lat="44.12438" lon="5.00424">
        <ele>90.61328125</ele>
        <time>2017-04-06T13:11:08Z</time>
      </trkpt>
      <trkpt lat="44.12443" lon="5.0041">
        <ele>90.55859375</ele>
        <time>2017-04-06T13:11:19Z</time>
      </trkpt>
      <trkpt lat="44.12449" lon="5.00397">
        <ele>90.39453125</ele>
        <time>2017-04-06T13:11:29Z</time>
      </trkpt>
      <trkpt lat="44.12454" lon="5.00381">
        <ele>89.73828125</ele>
        <time>2017-04-06T13:11:39Z</time>
      </trkpt>
      <trkpt lat="44.12457" lon="5.00368">
        <ele>89.15625</ele>
        <time>2017-04-06T13:11:48Z</time>
      </trkpt>
      <trkpt lat="44.12461" lon="5.00355">
        <ele>88.86328125</ele>
        <time>2017-04-06T13:11:57Z</time>
      </trkpt>
      <trkpt lat="44.12464" lon="5.00339">
        <ele>88.71484375</ele>
        <time>2017-04-06T13:12:07Z</time>
      </trkpt>
      <trkpt lat="44.12467" lon="5.00326">
        <ele>88.2578125</ele>
        <time>2017-04-06T13:12:17Z</time>
      </trkpt>
      <trkpt lat="44.1247" lon="5.00312">
        <ele>87.55859375</ele>
        <time>2017-04-06T13:12:27Z</time>
      </trkpt>
      <trkpt lat="44.12472" lon="5.00298">
        <ele>87.046875</ele>
        <time>2017-04-06T13:12:38Z</time>
      </trkpt>
      <trkpt lat="44.12474" lon="5.0028">
        <ele>86.55859375</ele>
        <time>2017-04-06T13:12:50Z</time>
      </trkpt>
      <trkpt lat="44.12474" lon="5.00263">
        <ele>86.63671875</ele>
        <time>2017-04-06T13:13:00Z</time>
      </trkpt>
      <trkpt lat="44.12474" lon="5.00247">
        <ele>86.703125</ele>
        <time>2017-04-06T13:13:09Z</time>
      </trkpt>
      <trkpt lat="44.12479" lon="5.00238">
        <ele>87.0625</ele>
        <time>2017-04-06T13:13:27Z</time>
      </trkpt>
      <trkpt lat="44.1249" lon="5.00241">
        <ele>87.86328125</ele>
        <time>2017-04-06T13:13:37Z</time>
      </trkpt>
      <trkpt lat="44.12499" lon="5.00247">
        <ele>88.52734375</ele>
        <time>2017-04-06T13:13:47Z</time>
      </trkpt>
      <trkpt lat="44.12509" lon="5.00252">
        <ele>89.2578125</ele>
        <time>2017-04-06T13:13:56Z</time>
      </trkpt>
      <trkpt lat="44.12519" lon="5.00255">
        <ele>90.09375</ele>
        <time>2017-04-06T13:14:06Z</time>
      </trkpt>
      <trkpt lat="44.12529" lon="5.00258">
        <ele>90.90625</ele>
        <time>2017-04-06T13:14:16Z</time>
      </trkpt>
      <trkpt lat="44.12537" lon="5.00254">
        <ele>91.4375</ele>
        <time>2017-04-06T13:14:56Z</time>
      </trkpt>
      <trkpt lat="44.12545" lon="5.0025">
        <ele>92.2578125</ele>
        <time>2017-04-06T13:15:11Z</time>
      </trkpt>
      <trkpt lat="44.12553" lon="5.00243">
        <ele>93.21875</ele>
        <time>2017-04-06T13:15:21Z</time>
      </trkpt>
      <trkpt lat="44.1256" lon="5.00233">
        <ele>93.90234375</ele>
        <time>2017-04-06T13:15:31Z</time>
      </trkpt>
      <trkpt lat="44.12566" lon="5.00223">
        <ele>94.52734375</ele>
        <time>2017-04-06T13:15:41Z</time>
      </trkpt>
      <trkpt lat="44.12572" lon="5.00211">
        <ele>95.5546875</ele>
        <time>2017-04-06T13:15:51Z</time>
      </trkpt>
      <trkpt lat="44.12578" lon="5.00201">
        <ele>96.609375</ele>
        <time>2017-04-06T13:16:01Z</time>
      </trkpt>
      <trkpt lat="44.12585" lon="5.00191">
        <ele>97.55859375</ele>
        <time>2017-04-06T13:16:13Z</time>
      </trkpt>
      <trkpt lat="44.12591" lon="5.00181">
        <ele>98.1796875</ele>
        <time>2017-04-06T13:16:22Z</time>
      </trkpt>
      <trkpt lat="44.12598" lon="5.00172">
        <ele>99.11328125</ele>
        <time>2017-04-06T13:16:33Z</time>
      </trkpt>
      <trkpt lat="44.12605" lon="5.00164">
        <ele>100.234375</ele>
        <time>2017-04-06T13:16:43Z</time>
      </trkpt>
      <trkpt lat="44.12614" lon="5.00157">
        <ele>101.51171875</ele>
        <time>2017-04-06T13:16:55Z</time>
      </trkpt>
      <trkpt lat="44.12622" lon="5.00163">
        <ele>102.53125</ele>
        <time>2017-04-06T13:17:07Z</time>
      </trkpt>
      <trkpt lat="44.12632" lon="5.00169">
        <ele>103.453125</ele>
        <time>2017-04-06T13:17:21Z</time>
      </trkpt>
      <trkpt lat="44.12642" lon="5.00165">
        <ele>104.81640625</ele>
        <time>2017-04-06T13:17:34Z</time>
      </trkpt>
      <trkpt lat="44.12653" lon="5.00158">
        <ele>105.9296875</ele>
        <time>2017-04-06T13:17:48Z</time>
      </trkpt>
      <trkpt lat="44.12664" lon="5.00155">
        <ele>106.83984375</ele>
        <time>2017-04-06T13:17:58Z</time>
      </trkpt>
      <trkpt lat="44.12674" lon="5.00148">
        <ele>107.88671875</ele>
        <time>2017-04-06T13:18:09Z</time>
      </trkpt>
      <trkpt lat="44.12686" lon="5.0014">
        <ele>109.45703125</ele>
        <time>2017-04-06T13:18:22Z</time>
      </trkpt>
      <trkpt lat="44.12696" lon="5.00134">
        <ele>110.7421875</ele>
        <time>2017-04-06T13:18:33Z</time>
      </trkpt>
      <trkpt lat="44.12706" lon="5.00128">
        <ele>112.0703125</ele>
        <time>2017-04-06T13:18:46Z</time>
      </trkpt>
      <trkpt lat="44.12715" lon="5.0012">
        <ele>113.33984375</ele>
        <time>2017-04-06T13:19:00Z</time>
      </trkpt>
      <trkpt lat="44.12727" lon="5.00114">
        <ele>114.7890625</ele>
        <time>2017-04-06T13:19:18Z</time>
      </trkpt>
      <trkpt lat="44.12741" lon="5.00109">
        <ele>116.515625</ele>
        <time>2017-04-06T13:19:31Z</time>
      </trkpt>
      <trkpt lat="44.12751" lon="5.00104">
        <ele>117.5625</ele>
        <time>2017-04-06T13:19:43Z</time>
      </trkpt>
      <trkpt lat="44.1276" lon="5.00094">
        <ele>118.46484375</ele>
        <time>2017-04-06T13:19:59Z</time>
      </trkpt>
      <trkpt lat="44.12768" lon="5.00084">
        <ele>119.28515625</ele>
        <time>2017-04-06T13:20:11Z</time>
      </trkpt>
      <trkpt lat="44.12778" lon="5.00074">
        <ele>120.42578125</ele>
        <time>2017-04-06T13:20:22Z</time>
      </trkpt>
      <trkpt lat="44.12788" lon="5.00066">
        <ele>121.4453125</ele>
        <time>2017-04-06T13:20:32Z</time>
      </trkpt>
      <trkpt lat="44.12795" lon="5.00058">
        <ele>121.90234375</ele>
        <time>2017-04-06T13:20:46Z</time>
      </trkpt>
      <trkpt lat="44.12803" lon="5.00066">
        <ele>122.890625</ele>
        <time>2017-04-06T13:20:56Z</time>
      </trkpt>
      <trkpt lat="44.1281" lon="5.00075">
        <ele>124.1953125</ele>
        <time>2017-04-06T13:21:05Z</time>
      </trkpt>
      <trkpt lat="44.12818" lon="5.00084">
        <ele>126.10546875</ele>
        <time>2017-04-06T13:21:16Z</time>
      </trkpt>
      <trkpt lat="44.12826" lon="5.00093">
        <ele>128.4375</ele>
        <time>2017-04-06T13:21:26Z</time>
      </trkpt>
      <trkpt lat="44.12834" lon="5.00101">
        <ele>130.83203125</ele>
        <time>2017-04-06T13:21:35Z</time>
      </trkpt>
      <trkpt lat="44.12843" lon="5.001">
        <ele>132.5703125</ele>
        <time>2017-04-06T13:21:45Z</time>
      </trkpt>
      <trkpt lat="44.12851" lon="5.00091">
        <ele>133.1171875</ele>
        <time>2017-04-06T13:21:55Z</time>
      </trkpt>
      <trkpt lat="44.12859" lon="5.00083">
        <ele>133.4140625</ele>
        <time>2017-04-06T13:22:05Z</time>
      </trkpt>
      <trkpt lat="44.12868" lon="5.00075">
        <ele>134.0703125</ele>
        <time>2017-04-06T13:22:15Z</time>
      </trkpt>
      <trkpt lat="44.12877" lon="5.00066">
        <ele>134.41796875</ele>
        <time>2017-04-06T13:22:24Z</time>
      </trkpt>
      <trkpt lat="44.12884" lon="5.00058">
        <ele>134.49609375</ele>
        <time>2017-04-06T13:22:32Z</time>
      </trkpt>
      <trkpt lat="44.12893" lon="5.0005">
        <ele>134.8203125</ele>
        <time>2017-04-06T13:22:41Z</time>
      </trkpt>
      <trkpt lat="44.12902" lon="5.00041">
        <ele>135.01953125</ele>
        <time>2017-04-06T13:22:49Z</time>
      </trkpt>
      <trkpt lat="44.1291" lon="5.00032">
        <ele>134.78515625</ele>
        <time>2017-04-06T13:22:57Z</time>
      </trkpt>
      <trkpt lat="44.12918" lon="5.00023">
        <ele>134.453125</ele>
        <time>2017-04-06T13:23:06Z</time>
      </trkpt>
      <trkpt lat="44.12925" lon="5.00015">
        <ele>134.328125</ele>
        <time>2017-04-06T13:23:14Z</time>
      </trkpt>
      <trkpt lat="44.12933" lon="5.00006">
        <ele>134.25</ele>
        <time>2017-04-06T13:23:23Z</time>
      </trkpt>
      <trkpt lat="44.12941" lon="4.99996">
        <ele>134.0078125</ele>
        <time>2017-04-06T13:23:31Z</time>
      </trkpt>
      <trkpt lat="44.12952" lon="4.99992">
        <ele>134.6796875</ele>
        <time>2017-04-06T13:23:41Z</time>
      </trkpt>
      <trkpt lat="44.12962" lon="4.99985">
        <ele>133.06640625</ele>
        <time>2017-04-06T13:23:50Z</time>
      </trkpt>
      <trkpt lat="44.12972" lon="4.99976">
        <ele>130.73828125</ele>
        <time>2017-04-06T13:23:59Z</time>
      </trkpt>
      <trkpt lat="44.12982" lon="4.99964">
        <ele>126.9609375</ele>
        <time>2017-04-06T13:24:09Z</time>
      </trkpt>
      <trkpt lat="44.12991" lon="4.99954">
        <ele>123.77734375</ele>
        <time>2017-04-06T13:24:17Z</time>
      </trkpt>
      <trkpt lat="44.13" lon="4.99947">
        <ele>121.50390625</ele>
        <time>2017-04-06T13:24:26Z</time>
      </trkpt>
      <trkpt lat="44.13009" lon="4.99945">
        <ele>120.80859375</ele>
        <time>2017-04-06T13:24:34Z</time>
      </trkpt>
      <trkpt lat="44.1302" lon="4.99947">
        <ele>120.7421875</ele>
        <time>2017-04-06T13:24:45Z</time>
      </trkpt>
      <trkpt lat="44.13029" lon="4.99956">
        <ele>121.140625</ele>
        <time>2017-04-06T13:24:54Z</time>
      </trkpt>
      <trkpt lat="44.13038" lon="4.99963">
        <ele>121.07421875</ele>
        <time>2017-04-06T13:25:04Z</time>
      </trkpt>
      <trkpt lat="44.13045" lon="4.99957">
        <ele>120.80078125</ele>
        <time>2017-04-06T13:25:25Z</time>
      </trkpt>
      <trkpt lat="44.13047" lon="4.99954">
        <ele>120.8359375</ele>
        <time>2017-04-06T13:29:11Z</time>
      </trkpt>
      <trkpt lat="44.13059" lon="4.99967">
        <ele>119.8671875</ele>
        <time>2017-04-06T13:29:27Z</time>
      </trkpt>
      <trkpt lat="44.1307" lon="4.99976">
        <ele>120.69140625</ele>
        <time>2017-04-06T13:29:40Z</time>
      </trkpt>
      <trkpt lat="44.1308" lon="4.9998">
        <ele>122.01953125</ele>
        <time>2017-04-06T13:30:01Z</time>
      </trkpt>
      <trkpt lat="44.13089" lon="4.99984">
        <ele>122.6796875</ele>
        <time>2017-04-06T13:30:12Z</time>
      </trkpt>
      <trkpt lat="44.13103" lon="4.99986">
        <ele>124.3515625</ele>
        <time>2017-04-06T13:30:36Z</time>
      </trkpt>
      <trkpt lat="44.13119" lon="4.99986">
        <ele>126.57421875</ele>
        <time>2017-04-06T13:30:47Z</time>
      </trkpt>
      <trkpt lat="44.13127" lon="4.99994">
        <ele>126.9296875</ele>
        <time>2017-04-06T13:30:57Z</time>
      </trkpt>
      <trkpt lat="44.13134" lon="5.00004">
        <ele>126.875</ele>
        <time>2017-04-06T13:31:06Z</time>
      </trkpt>
      <trkpt lat="44.13142" lon="5.00013">
        <ele>127.35546875</ele>
        <time>2017-04-06T13:31:19Z</time>
      </trkpt>
      <trkpt lat="44.13152" lon="5.00022">
        <ele>129.36328125</ele>
        <time>2017-04-06T13:31:32Z</time>
      </trkpt>
      <trkpt lat="44.13157" lon="5.00036">
        <ele>130.0859375</ele>
        <time>2017-04-06T13:31:43Z</time>
      </trkpt>
      <trkpt lat="44.13159" lon="5.00051">
        <ele>129.56640625</ele>
        <time>2017-04-06T13:31:52Z</time>
      </trkpt>
      <trkpt lat="44.1316" lon="5.0007">
        <ele>128.73828125</ele>
        <time>2017-04-06T13:32:03Z</time>
      </trkpt>
      <trkpt lat="44.13165" lon="5.00085">
        <ele>129.12109375</ele>
        <time>2017-04-06T13:32:14Z</time>
      </trkpt>
      <trkpt lat="44.13173" lon="5.00097">
        <ele>130.18359375</ele>
        <time>2017-04-06T13:32:25Z</time>
      </trkpt>
      <trkpt lat="44.13175" lon="5.00114">
        <ele>129.4375</ele>
        <time>2017-04-06T13:32:41Z</time>
      </trkpt>
      <trkpt lat="44.13174" lon="5.00132">
        <ele>128.51953125</ele>
        <time>2017-04-06T13:32:53Z</time>
      </trkpt>
      <trkpt lat="44.1317" lon="5.00154">
        <ele>127.2890625</ele>
        <time>2017-04-06T13:33:03Z</time>
      </trkpt>
      <trkpt lat="44.1317" lon="5.00176">
        <ele>127.109375</ele>
        <time>2017-04-06T13:33:14Z</time>
      </trkpt>
      <trkpt lat="44.13172" lon="5.00194">
        <ele>127.91796875</ele>
        <time>2017-04-06T13:33:25Z</time>
      </trkpt>
      <trkpt lat="44.13176" lon="5.0021">
        <ele>128.74609375</ele>
        <time>2017-04-06T13:33:35Z</time>
      </trkpt>
      <trkpt lat="44.13186" lon="5.00218">
        <ele>129.40625</ele>
        <time>2017-04-06T13:33:48Z</time>
      </trkpt>
      <trkpt lat="44.13196" lon="5.00213">
        <ele>129.81640625</ele>
        <time>2017-04-06T13:33:58Z</time>
      </trkpt>
      <trkpt lat="44.13208" lon="5.00208">
        <ele>130.421875</ele>
        <time>2017-04-06T13:34:09Z</time>
      </trkpt>
      <trkpt lat="44.13217" lon="5.00203">
        <ele>131.05078125</ele>
        <time>2017-04-06T13:34:16Z</time>
      </trkpt>
      <trkpt lat="44.13226" lon="5.00198">
        <ele>131.80078125</ele>
        <time>2017-04-06T13:34:26Z</time>
      </trkpt>
      <trkpt lat="44.13236" lon="5.00195">
        <ele>132.29296875</ele>
        <time>2017-04-06T13:34:35Z</time>
      </trkpt>
      <trkpt lat="44.13247" lon="5.00191">
        <ele>132.90234375</ele>
        <time>2017-04-06T13:34:47Z</time>
      </trkpt>
      <trkpt lat="44.13257" lon="5.00188">
        <ele>133.63671875</ele>
        <time>2017-04-06T13:34:57Z</time>
      </trkpt>
      <trkpt lat="44.13263" lon="5.00185">
        <ele>134.078125</ele>
        <time>2017-04-06T13:35:09Z</time>
      </trkpt>
      <trkpt lat="44.13272" lon="5.00181">
        <ele>134.5859375</ele>
        <time>2017-04-06T13:35:16Z</time>
      </trkpt>
      <trkpt lat="44.13281" lon="5.00176">
        <ele>134.9609375</ele>
        <time>2017-04-06T13:35:24Z</time>
      </trkpt>
      <trkpt lat="44.13291" lon="5.00169">
        <ele>135.546875</ele>
        <time>2017-04-06T13:35:32Z</time>
      </trkpt>
      <trkpt lat="44.13301" lon="5.00165">
        <ele>136.40234375</ele>
        <time>2017-04-06T13:35:41Z</time>
      </trkpt>
      <trkpt lat="44.13313" lon="5.00158">
        <ele>137.3515625</ele>
        <time>2017-04-06T13:35:53Z</time>
      </trkpt>
      <trkpt lat="44.13323" lon="5.00151">
        <ele>137.51171875</ele>
        <time>2017-04-06T13:36:04Z</time>
      </trkpt>
      <trkpt lat="44.13336" lon="5.00145">
        <ele>137.25</ele>
        <time>2017-04-06T13:36:13Z</time>
      </trkpt>
      <trkpt lat="44.13346" lon="5.00139">
        <ele>137.53125</ele>
        <time>2017-04-06T13:36:22Z</time>
      </trkpt>
      <trkpt lat="44.13356" lon="5.00131">
        <ele>138.1484375</ele>
        <time>2017-04-06T13:36:31Z</time>
      </trkpt>
      <trkpt lat="44.13364" lon="5.00121">
        <ele>138.26953125</ele>
        <time>2017-04-06T13:36:39Z</time>
      </trkpt>
      <trkpt lat="44.13373" lon="5.00114">
        <ele>138.328125</ele>
        <time>2017-04-06T13:36:47Z</time>
      </trkpt>
      <trkpt lat="44.13382" lon="5.00106">
        <ele>138.8828125</ele>
        <time>2017-04-06T13:36:55Z</time>
      </trkpt>
      <trkpt lat="44.1339" lon="5.00099">
        <ele>139.3828125</ele>
        <time>2017-04-06T13:37:03Z</time>
      </trkpt>
      <trkpt lat="44.13399" lon="5.00088">
        <ele>140.0625</ele>
        <time>2017-04-06T13:37:14Z</time>
      </trkpt>
      <trkpt lat="44.13407" lon="5.00078">
        <ele>140.48046875</ele>
        <time>2017-04-06T13:37:24Z</time>
      </trkpt>
      <trkpt lat="44.13416" lon="5.00069">
        <ele>140.48046875</ele>
        <time>2017-04-06T13:37:32Z</time>
      </trkpt>
      <trkpt lat="44.13425" lon="5.00059">
        <ele>140.1171875</ele>
        <time>2017-04-06T13:37:41Z</time>
      </trkpt>
      <trkpt lat="44.13435" lon="5.00055">
        <ele>140.00390625</ele>
        <time>2017-04-06T13:37:49Z</time>
      </trkpt>
      <trkpt lat="44.13446" lon="5.00055">
        <ele>139.96875</ele>
        <time>2017-04-06T13:37:57Z</time>
      </trkpt>
      <trkpt lat="44.13456" lon="5.00056">
        <ele>140.18359375</ele>
        <time>2017-04-06T13:38:04Z</time>
      </trkpt>
      <trkpt lat="44.13466" lon="5.00051">
        <ele>140.1640625</ele>
        <time>2017-04-06T13:38:12Z</time>
      </trkpt>
      <trkpt lat="44.13475" lon="5.00045">
        <ele>139.7734375</ele>
        <time>2017-04-06T13:38:20Z</time>
      </trkpt>
      <trkpt lat="44.13483" lon="5.00038">
        <ele>139.6484375</ele>
        <time>2017-04-06T13:38:28Z</time>
      </trkpt>
      <trkpt lat="44.13491" lon="5.0003">
        <ele>139.6171875</ele>
        <time>2017-04-06T13:38:35Z</time>
      </trkpt>
      <trkpt lat="44.13499" lon="5.00024">
        <ele>139.91015625</ele>
        <time>2017-04-06T13:38:42Z</time>
      </trkpt>
      <trkpt lat="44.13507" lon="5.00018">
        <ele>139.98828125</ele>
        <time>2017-04-06T13:38:50Z</time>
      </trkpt>
      <trkpt lat="44.13516" lon="5.00012">
        <ele>140.265625</ele>
        <time>2017-04-06T13:38:58Z</time>
      </trkpt>
      <trkpt lat="44.13524" lon="5.00006">
        <ele>140.1171875</ele>
        <time>2017-04-06T13:39:06Z</time>
      </trkpt>
      <trkpt lat="44.13534" lon="4.99999">
        <ele>139.859375</ele>
        <time>2017-04-06T13:39:15Z</time>
      </trkpt>
      <trkpt lat="44.13542" lon="4.99991">
        <ele>139.72265625</ele>
        <time>2017-04-06T13:39:26Z</time>
      </trkpt>
      <trkpt lat="44.1355" lon="4.99986">
        <ele>139.5546875</ele>
        <time>2017-04-06T13:39:39Z</time>
      </trkpt>
      <trkpt lat="44.13559" lon="4.9998">
        <ele>139.046875</ele>
        <time>2017-04-06T13:39:47Z</time>
      </trkpt>
      <trkpt lat="44.13567" lon="4.99973">
        <ele>138.21484375</ele>
        <time>2017-04-06T13:39:55Z</time>
      </trkpt>
      <trkpt lat="44.13576" lon="4.99966">
        <ele>137.77734375</ele>
        <time>2017-04-06T13:40:04Z</time>
      </trkpt>
      <trkpt lat="44.13584" lon="4.99961">
        <ele>137.49609375</ele>
        <time>2017-04-06T13:40:12Z</time>
      </trkpt>
      <trkpt lat="44.13595" lon="4.99954">
        <ele>137.24609375</ele>
        <time>2017-04-06T13:40:23Z</time>
      </trkpt>
      <trkpt lat="44.13605" lon="4.99946">
        <ele>136.73046875</ele>
        <time>2017-04-06T13:40:32Z</time>
      </trkpt>
      <trkpt lat="44.13615" lon="4.99946">
        <ele>137.0078125</ele>
        <time>2017-04-06T13:40:40Z</time>
      </trkpt>
      <trkpt lat="44.13623" lon="4.99956">
        <ele>138.71875</ele>
        <time>2017-04-06T13:40:49Z</time>
      </trkpt>
      <trkpt lat="44.13632" lon="4.99963">
        <ele>140.11328125</ele>
        <time>2017-04-06T13:40:58Z</time>
      </trkpt>
      <trkpt lat="44.13641" lon="4.99971">
        <ele>141.5</ele>
        <time>2017-04-06T13:41:08Z</time>
      </trkpt>
      <trkpt lat="44.13648" lon="4.99963">
        <ele>140.609375</ele>
        <time>2017-04-06T13:41:16Z</time>
      </trkpt>
      <trkpt lat="44.13656" lon="4.99955">
        <ele>139.98828125</ele>
        <time>2017-04-06T13:41:25Z</time>
      </trkpt>
      <trkpt lat="44.13665" lon="4.99948">
        <ele>139.74609375</ele>
        <time>2017-04-06T13:41:34Z</time>
      </trkpt>
      <trkpt lat="44.13673" lon="4.99941">
        <ele>139.5</ele>
        <time>2017-04-06T13:41:43Z</time>
      </trkpt>
      <trkpt lat="44.13681" lon="4.99933">
        <ele>138.79296875</ele>
        <time>2017-04-06T13:41:52Z</time>
      </trkpt>
      <trkpt lat="44.1369" lon="4.99925">
        <ele>138.25</ele>
        <time>2017-04-06T13:42:01Z</time>
      </trkpt>
      <trkpt lat="44.13698" lon="4.99917">
        <ele>137.91796875</ele>
        <time>2017-04-06T13:42:11Z</time>
      </trkpt>
      <trkpt lat="44.13707" lon="4.9991">
        <ele>138.16015625</ele>
        <time>2017-04-06T13:42:20Z</time>
      </trkpt>
      <trkpt lat="44.13715" lon="4.99903">
        <ele>138.3046875</ele>
        <time>2017-04-06T13:42:44Z</time>
      </trkpt>
      <trkpt lat="44.13722" lon="4.999">
        <ele>138.4765625</ele>
        <time>2017-04-06T13:43:02Z</time>
      </trkpt>
      <trkpt lat="44.13731" lon="4.99893">
        <ele>138.421875</ele>
        <time>2017-04-06T13:43:11Z</time>
      </trkpt>
      <trkpt lat="44.13739" lon="4.99883">
        <ele>138.34375</ele>
        <time>2017-04-06T13:43:20Z</time>
      </trkpt>
      <trkpt lat="44.13748" lon="4.99875">
        <ele>138.41015625</ele>
        <time>2017-04-06T13:43:31Z</time>
      </trkpt>
      <trkpt lat="44.13757" lon="4.99867">
        <ele>138.4609375</ele>
        <time>2017-04-06T13:43:40Z</time>
      </trkpt>
      <trkpt lat="44.13766" lon="4.99858">
        <ele>138.52734375</ele>
        <time>2017-04-06T13:43:49Z</time>
      </trkpt>
      <trkpt lat="44.13773" lon="4.99849">
        <ele>138.67578125</ele>
        <time>2017-04-06T13:43:58Z</time>
      </trkpt>
      <trkpt lat="44.13781" lon="4.99841">
        <ele>139.08984375</ele>
        <time>2017-04-06T13:44:07Z</time>
      </trkpt>
      <trkpt lat="44.1379" lon="4.99836">
        <ele>139.59375</ele>
        <time>2017-04-06T13:44:15Z</time>
      </trkpt>
      <trkpt lat="44.138" lon="4.99836">
        <ele>140.32421875</ele>
        <time>2017-04-06T13:44:25Z</time>
      </trkpt>
      <trkpt lat="44.13801" lon="4.99849">
        <ele>141.15625</ele>
        <time>2017-04-06T13:44:35Z</time>
      </trkpt>
      <trkpt lat="44.13798" lon="4.99862">
        <ele>141.61328125</ele>
        <time>2017-04-06T13:44:48Z</time>
      </trkpt>
      <trkpt lat="44.13793" lon="4.99879">
        <ele>142.0703125</ele>
        <time>2017-04-06T13:45:04Z</time>
      </trkpt>
      <trkpt lat="44.13791" lon="4.9989">
        <ele>142.61328125</ele>
        <time>2017-04-06T13:45:49Z</time>
      </trkpt>
      <trkpt lat="44.13792" lon="4.99888">
        <ele>142.6015625</ele>
        <time>2017-04-06T13:45:51Z</time>
      </trkpt>
    </trkseg>
  </trk>
</gpx>